<?xml version="1.0" encoding="UTF-8" standalone="no" ?>
<gpx xmlns="http://www.topografix.com/GPX/1/1" xmlns:xsi="http://www.w3.org/2001/XMLSchema-instance" xsi:schemaLocation="http://www.topografix.com/GPX/1/1 http://www.topografix.com/GPX/1/1/gpx.xsd" version="1.1" creator="VisuGPX - https://www.visugpx.com">
  <metadata>
    <name>Luriecq - Montracher 28 km</name>
    <desc><![CDATA[19-09-2021 - Beau Dimanche du CDTE]]></desc>
  </metadata>
  <trk>
    <name><![CDATA[2021-09-19 16:22:16]]></name>
    <extensions>
      <line xmlns="http://www.topografix.com/GPX/gpx_style/0/2">
        <color>0000FF</color>
        <width>4</width>
      </line>
    </extensions>
    <trkseg>
      <trkpt lat="45.45312" lon="4.07952">
        <ele>719.2</ele>
        <time>2021-09-19T07:07:54Z</time>
      </trkpt>
      <trkpt lat="45.45311" lon="4.07954">
        <ele>719.2</ele>
        <time>2021-09-19T07:08:09Z</time>
      </trkpt>
      <trkpt lat="45.45555" lon="4.07921">
        <ele>718.72</ele>
        <time>2021-09-19T07:38:30Z</time>
      </trkpt>
      <trkpt lat="45.4556" lon="4.0793">
        <ele>716.32</ele>
        <time>2021-09-19T07:38:39Z</time>
      </trkpt>
      <trkpt lat="45.45565" lon="4.07934">
        <ele>716.32</ele>
        <time>2021-09-19T07:38:42Z</time>
      </trkpt>
      <trkpt lat="45.45598" lon="4.07954">
        <ele>719.68</ele>
        <time>2021-09-19T07:39:04Z</time>
      </trkpt>
      <trkpt lat="45.45628" lon="4.07981">
        <ele>720.16</ele>
        <time>2021-09-19T07:39:26Z</time>
      </trkpt>
      <trkpt lat="45.45648" lon="4.08008">
        <ele>719.68</ele>
        <time>2021-09-19T07:39:43Z</time>
      </trkpt>
      <trkpt lat="45.45661" lon="4.08037">
        <ele>717.76</ele>
        <time>2021-09-19T07:40:00Z</time>
      </trkpt>
      <trkpt lat="45.45683" lon="4.08074">
        <ele>716.8</ele>
        <time>2021-09-19T07:40:24Z</time>
      </trkpt>
      <trkpt lat="45.45694" lon="4.08088">
        <ele>716.32</ele>
        <time>2021-09-19T07:40:34Z</time>
      </trkpt>
      <trkpt lat="45.45712" lon="4.08119">
        <ele>713.44</ele>
        <time>2021-09-19T07:40:53Z</time>
      </trkpt>
      <trkpt lat="45.4572" lon="4.08128">
        <ele>716.8</ele>
        <time>2021-09-19T07:41:12Z</time>
      </trkpt>
      <trkpt lat="45.45722" lon="4.08131">
        <ele>713.92</ele>
        <time>2021-09-19T07:41:41Z</time>
      </trkpt>
      <trkpt lat="45.45729" lon="4.0815">
        <ele>714.4</ele>
        <time>2021-09-19T07:42:03Z</time>
      </trkpt>
      <trkpt lat="45.45754" lon="4.0818">
        <ele>713.92</ele>
        <time>2021-09-19T07:42:23Z</time>
      </trkpt>
      <trkpt lat="45.45777" lon="4.08203">
        <ele>710.55</ele>
        <time>2021-09-19T07:42:43Z</time>
      </trkpt>
      <trkpt lat="45.45806" lon="4.08228">
        <ele>709.59</ele>
        <time>2021-09-19T07:43:06Z</time>
      </trkpt>
      <trkpt lat="45.45836" lon="4.08254">
        <ele>708.63</ele>
        <time>2021-09-19T07:43:26Z</time>
      </trkpt>
      <trkpt lat="45.45872" lon="4.08271">
        <ele>707.19</ele>
        <time>2021-09-19T07:43:49Z</time>
      </trkpt>
      <trkpt lat="45.45899" lon="4.08276">
        <ele>701.42</ele>
        <time>2021-09-19T07:44:09Z</time>
      </trkpt>
      <trkpt lat="45.45933" lon="4.08279">
        <ele>697.09</ele>
        <time>2021-09-19T07:44:31Z</time>
      </trkpt>
      <trkpt lat="45.45963" lon="4.08275">
        <ele>690.84</ele>
        <time>2021-09-19T07:44:53Z</time>
      </trkpt>
      <trkpt lat="45.45996" lon="4.0828">
        <ele>695.65</ele>
        <time>2021-09-19T07:45:16Z</time>
      </trkpt>
      <trkpt lat="45.4603" lon="4.08272">
        <ele>698.53</ele>
        <time>2021-09-19T07:45:39Z</time>
      </trkpt>
      <trkpt lat="45.46076" lon="4.08248">
        <ele>706.23</ele>
        <time>2021-09-19T07:46:03Z</time>
      </trkpt>
      <trkpt lat="45.46108" lon="4.0823">
        <ele>712.95</ele>
        <time>2021-09-19T07:46:25Z</time>
      </trkpt>
      <trkpt lat="45.4614" lon="4.08215">
        <ele>713.44</ele>
        <time>2021-09-19T07:46:50Z</time>
      </trkpt>
      <trkpt lat="45.4617" lon="4.08199">
        <ele>718.24</ele>
        <time>2021-09-19T07:47:11Z</time>
      </trkpt>
      <trkpt lat="45.46201" lon="4.08189">
        <ele>719.2</ele>
        <time>2021-09-19T07:47:32Z</time>
      </trkpt>
      <trkpt lat="45.46242" lon="4.08158">
        <ele>720.16</ele>
        <time>2021-09-19T07:47:59Z</time>
      </trkpt>
      <trkpt lat="45.4627" lon="4.08138">
        <ele>721.61</ele>
        <time>2021-09-19T07:48:23Z</time>
      </trkpt>
      <trkpt lat="45.46299" lon="4.08104">
        <ele>723.05</ele>
        <time>2021-09-19T07:48:46Z</time>
      </trkpt>
      <trkpt lat="45.46325" lon="4.08067">
        <ele>722.09</ele>
        <time>2021-09-19T07:49:08Z</time>
      </trkpt>
      <trkpt lat="45.46341" lon="4.08028">
        <ele>719.2</ele>
        <time>2021-09-19T07:49:33Z</time>
      </trkpt>
      <trkpt lat="45.46361" lon="4.07984">
        <ele>717.76</ele>
        <time>2021-09-19T07:49:57Z</time>
      </trkpt>
      <trkpt lat="45.46386" lon="4.07949">
        <ele>719.2</ele>
        <time>2021-09-19T07:50:17Z</time>
      </trkpt>
      <trkpt lat="45.464" lon="4.07899">
        <ele>717.76</ele>
        <time>2021-09-19T07:50:41Z</time>
      </trkpt>
      <trkpt lat="45.46407" lon="4.0785">
        <ele>713.92</ele>
        <time>2021-09-19T07:51:05Z</time>
      </trkpt>
      <trkpt lat="45.46406" lon="4.0781">
        <ele>710.55</ele>
        <time>2021-09-19T07:51:26Z</time>
      </trkpt>
      <trkpt lat="45.46404" lon="4.07757">
        <ele>713.44</ele>
        <time>2021-09-19T07:51:47Z</time>
      </trkpt>
      <trkpt lat="45.46402" lon="4.0771">
        <ele>713.92</ele>
        <time>2021-09-19T07:52:08Z</time>
      </trkpt>
      <trkpt lat="45.464" lon="4.07661">
        <ele>714.88</ele>
        <time>2021-09-19T07:52:31Z</time>
      </trkpt>
      <trkpt lat="45.46397" lon="4.07635">
        <ele>715.36</ele>
        <time>2021-09-19T07:52:43Z</time>
      </trkpt>
      <trkpt lat="45.46394" lon="4.07588">
        <ele>718.72</ele>
        <time>2021-09-19T07:53:05Z</time>
      </trkpt>
      <trkpt lat="45.46388" lon="4.07538">
        <ele>717.28</ele>
        <time>2021-09-19T07:53:28Z</time>
      </trkpt>
      <trkpt lat="45.4638" lon="4.07489">
        <ele>719.68</ele>
        <time>2021-09-19T07:53:53Z</time>
      </trkpt>
      <trkpt lat="45.46367" lon="4.07443">
        <ele>717.28</ele>
        <time>2021-09-19T07:54:18Z</time>
      </trkpt>
      <trkpt lat="45.46349" lon="4.07398">
        <ele>721.61</ele>
        <time>2021-09-19T07:54:39Z</time>
      </trkpt>
      <trkpt lat="45.46325" lon="4.07353">
        <ele>735.07</ele>
        <time>2021-09-19T07:55:01Z</time>
      </trkpt>
      <trkpt lat="45.46304" lon="4.07315">
        <ele>744.2</ele>
        <time>2021-09-19T07:55:22Z</time>
      </trkpt>
      <trkpt lat="45.46278" lon="4.07267">
        <ele>746.6</ele>
        <time>2021-09-19T07:55:47Z</time>
      </trkpt>
      <trkpt lat="45.46257" lon="4.07228">
        <ele>747.08</ele>
        <time>2021-09-19T07:56:09Z</time>
      </trkpt>
      <trkpt lat="45.46232" lon="4.07188">
        <ele>745.16</ele>
        <time>2021-09-19T07:56:33Z</time>
      </trkpt>
      <trkpt lat="45.46209" lon="4.07161">
        <ele>740.83</ele>
        <time>2021-09-19T07:56:55Z</time>
      </trkpt>
      <trkpt lat="45.46186" lon="4.0714">
        <ele>737.95</ele>
        <time>2021-09-19T07:57:16Z</time>
      </trkpt>
      <trkpt lat="45.46167" lon="4.07103">
        <ele>742.28</ele>
        <time>2021-09-19T07:57:37Z</time>
      </trkpt>
      <trkpt lat="45.46139" lon="4.07069">
        <ele>749.49</ele>
        <time>2021-09-19T07:58:00Z</time>
      </trkpt>
      <trkpt lat="45.46114" lon="4.07037">
        <ele>747.56</ele>
        <time>2021-09-19T07:58:24Z</time>
      </trkpt>
      <trkpt lat="45.46093" lon="4.07">
        <ele>749.97</ele>
        <time>2021-09-19T07:58:46Z</time>
      </trkpt>
      <trkpt lat="45.46067" lon="4.0696">
        <ele>751.89</ele>
        <time>2021-09-19T07:59:12Z</time>
      </trkpt>
      <trkpt lat="45.46044" lon="4.06923">
        <ele>753.33</ele>
        <time>2021-09-19T07:59:33Z</time>
      </trkpt>
      <trkpt lat="45.46021" lon="4.0688">
        <ele>757.18</ele>
        <time>2021-09-19T08:00:00Z</time>
      </trkpt>
      <trkpt lat="45.45992" lon="4.06837">
        <ele>763.42</ele>
        <time>2021-09-19T08:00:23Z</time>
      </trkpt>
      <trkpt lat="45.4597" lon="4.06802">
        <ele>765.35</ele>
        <time>2021-09-19T08:00:47Z</time>
      </trkpt>
      <trkpt lat="45.45946" lon="4.06764">
        <ele>766.31</ele>
        <time>2021-09-19T08:01:11Z</time>
      </trkpt>
      <trkpt lat="45.45922" lon="4.06725">
        <ele>763.9</ele>
        <time>2021-09-19T08:01:38Z</time>
      </trkpt>
      <trkpt lat="45.4589" lon="4.06675">
        <ele>764.87</ele>
        <time>2021-09-19T08:02:06Z</time>
      </trkpt>
      <trkpt lat="45.4587" lon="4.06642">
        <ele>766.79</ele>
        <time>2021-09-19T08:02:28Z</time>
      </trkpt>
      <trkpt lat="45.45845" lon="4.06609">
        <ele>766.79</ele>
        <time>2021-09-19T08:02:50Z</time>
      </trkpt>
      <trkpt lat="45.45815" lon="4.06578">
        <ele>768.23</ele>
        <time>2021-09-19T08:03:14Z</time>
      </trkpt>
      <trkpt lat="45.45785" lon="4.06553">
        <ele>767.75</ele>
        <time>2021-09-19T08:03:39Z</time>
      </trkpt>
      <trkpt lat="45.45756" lon="4.06539">
        <ele>766.31</ele>
        <time>2021-09-19T08:03:58Z</time>
      </trkpt>
      <trkpt lat="45.4571" lon="4.0653">
        <ele>765.35</ele>
        <time>2021-09-19T08:04:27Z</time>
      </trkpt>
      <trkpt lat="45.45686" lon="4.06523">
        <ele>772.08</ele>
        <time>2021-09-19T08:04:44Z</time>
      </trkpt>
      <trkpt lat="45.4565" lon="4.06523">
        <ele>778.32</ele>
        <time>2021-09-19T08:05:06Z</time>
      </trkpt>
      <trkpt lat="45.45621" lon="4.06525">
        <ele>781.21</ele>
        <time>2021-09-19T08:05:30Z</time>
      </trkpt>
      <trkpt lat="45.4561" lon="4.06528">
        <ele>782.17</ele>
        <time>2021-09-19T08:05:52Z</time>
      </trkpt>
      <trkpt lat="45.45574" lon="4.06535">
        <ele>784.57</ele>
        <time>2021-09-19T08:06:18Z</time>
      </trkpt>
      <trkpt lat="45.45547" lon="4.06545">
        <ele>784.57</ele>
        <time>2021-09-19T08:06:40Z</time>
      </trkpt>
      <trkpt lat="45.45511" lon="4.06561">
        <ele>783.61</ele>
        <time>2021-09-19T08:07:08Z</time>
      </trkpt>
      <trkpt lat="45.45489" lon="4.06579">
        <ele>785.05</ele>
        <time>2021-09-19T08:07:26Z</time>
      </trkpt>
      <trkpt lat="45.45461" lon="4.06604">
        <ele>786.02</ele>
        <time>2021-09-19T08:07:50Z</time>
      </trkpt>
      <trkpt lat="45.45432" lon="4.06636">
        <ele>788.42</ele>
        <time>2021-09-19T08:08:12Z</time>
      </trkpt>
      <trkpt lat="45.45412" lon="4.06666">
        <ele>790.82</ele>
        <time>2021-09-19T08:08:32Z</time>
      </trkpt>
      <trkpt lat="45.45398" lon="4.06684">
        <ele>792.26</ele>
        <time>2021-09-19T08:08:51Z</time>
      </trkpt>
      <trkpt lat="45.45376" lon="4.06715">
        <ele>787.94</ele>
        <time>2021-09-19T08:09:09Z</time>
      </trkpt>
      <trkpt lat="45.45346" lon="4.06751">
        <ele>786.02</ele>
        <time>2021-09-19T08:09:31Z</time>
      </trkpt>
      <trkpt lat="45.45316" lon="4.06784">
        <ele>787.46</ele>
        <time>2021-09-19T08:09:53Z</time>
      </trkpt>
      <trkpt lat="45.45296" lon="4.068">
        <ele>786.98</ele>
        <time>2021-09-19T08:10:15Z</time>
      </trkpt>
      <trkpt lat="45.45259" lon="4.06819">
        <ele>786.5</ele>
        <time>2021-09-19T08:10:39Z</time>
      </trkpt>
      <trkpt lat="45.4523" lon="4.06829">
        <ele>785.53</ele>
        <time>2021-09-19T08:10:58Z</time>
      </trkpt>
      <trkpt lat="45.45195" lon="4.06838">
        <ele>786.02</ele>
        <time>2021-09-19T08:11:21Z</time>
      </trkpt>
      <trkpt lat="45.45161" lon="4.06844">
        <ele>789.86</ele>
        <time>2021-09-19T08:11:44Z</time>
      </trkpt>
      <trkpt lat="45.45125" lon="4.06845">
        <ele>793.22</ele>
        <time>2021-09-19T08:12:08Z</time>
      </trkpt>
      <trkpt lat="45.45088" lon="4.0684">
        <ele>791.78</ele>
        <time>2021-09-19T08:12:34Z</time>
      </trkpt>
      <trkpt lat="45.45057" lon="4.06834">
        <ele>786.98</ele>
        <time>2021-09-19T08:12:56Z</time>
      </trkpt>
      <trkpt lat="45.45026" lon="4.06826">
        <ele>781.21</ele>
        <time>2021-09-19T08:13:21Z</time>
      </trkpt>
      <trkpt lat="45.4499" lon="4.06821">
        <ele>777.36</ele>
        <time>2021-09-19T08:13:42Z</time>
      </trkpt>
      <trkpt lat="45.4496" lon="4.06819">
        <ele>779.77</ele>
        <time>2021-09-19T08:14:02Z</time>
      </trkpt>
      <trkpt lat="45.44924" lon="4.06823">
        <ele>785.05</ele>
        <time>2021-09-19T08:14:23Z</time>
      </trkpt>
      <trkpt lat="45.44892" lon="4.0683">
        <ele>786.98</ele>
        <time>2021-09-19T08:14:46Z</time>
      </trkpt>
      <trkpt lat="45.44861" lon="4.06834">
        <ele>783.13</ele>
        <time>2021-09-19T08:15:09Z</time>
      </trkpt>
      <trkpt lat="45.44818" lon="4.06835">
        <ele>786.5</ele>
        <time>2021-09-19T08:15:32Z</time>
      </trkpt>
      <trkpt lat="45.44786" lon="4.06835">
        <ele>787.94</ele>
        <time>2021-09-19T08:15:52Z</time>
      </trkpt>
      <trkpt lat="45.4475" lon="4.06821">
        <ele>787.94</ele>
        <time>2021-09-19T08:16:16Z</time>
      </trkpt>
      <trkpt lat="45.44717" lon="4.06808">
        <ele>785.05</ele>
        <time>2021-09-19T08:16:37Z</time>
      </trkpt>
      <trkpt lat="45.44682" lon="4.06784">
        <ele>787.46</ele>
        <time>2021-09-19T08:17:02Z</time>
      </trkpt>
      <trkpt lat="45.44647" lon="4.06762">
        <ele>789.86</ele>
        <time>2021-09-19T08:17:25Z</time>
      </trkpt>
      <trkpt lat="45.44617" lon="4.06737">
        <ele>788.42</ele>
        <time>2021-09-19T08:17:49Z</time>
      </trkpt>
      <trkpt lat="45.4459" lon="4.06712">
        <ele>789.86</ele>
        <time>2021-09-19T08:18:10Z</time>
      </trkpt>
      <trkpt lat="45.44557" lon="4.06683">
        <ele>791.3</ele>
        <time>2021-09-19T08:18:34Z</time>
      </trkpt>
      <trkpt lat="45.44529" lon="4.06655">
        <ele>792.74</ele>
        <time>2021-09-19T08:18:57Z</time>
      </trkpt>
      <trkpt lat="45.44499" lon="4.06619">
        <ele>794.67</ele>
        <time>2021-09-19T08:19:23Z</time>
      </trkpt>
      <trkpt lat="45.44474" lon="4.06588">
        <ele>793.71</ele>
        <time>2021-09-19T08:19:43Z</time>
      </trkpt>
      <trkpt lat="45.4445" lon="4.0656">
        <ele>790.82</ele>
        <time>2021-09-19T08:20:04Z</time>
      </trkpt>
      <trkpt lat="45.44427" lon="4.06533">
        <ele>788.42</ele>
        <time>2021-09-19T08:20:25Z</time>
      </trkpt>
      <trkpt lat="45.44398" lon="4.06501">
        <ele>789.38</ele>
        <time>2021-09-19T08:20:49Z</time>
      </trkpt>
      <trkpt lat="45.4437" lon="4.06467">
        <ele>795.15</ele>
        <time>2021-09-19T08:21:13Z</time>
      </trkpt>
      <trkpt lat="45.44349" lon="4.06438">
        <ele>797.07</ele>
        <time>2021-09-19T08:21:35Z</time>
      </trkpt>
      <trkpt lat="45.44326" lon="4.06402">
        <ele>799.47</ele>
        <time>2021-09-19T08:21:59Z</time>
      </trkpt>
      <trkpt lat="45.44309" lon="4.06369">
        <ele>798.51</ele>
        <time>2021-09-19T08:22:20Z</time>
      </trkpt>
      <trkpt lat="45.44297" lon="4.06339">
        <ele>797.55</ele>
        <time>2021-09-19T08:22:36Z</time>
      </trkpt>
      <trkpt lat="45.44283" lon="4.06294">
        <ele>798.99</ele>
        <time>2021-09-19T08:23:00Z</time>
      </trkpt>
      <trkpt lat="45.44277" lon="4.06253">
        <ele>798.03</ele>
        <time>2021-09-19T08:23:20Z</time>
      </trkpt>
      <trkpt lat="45.4427" lon="4.06208">
        <ele>798.03</ele>
        <time>2021-09-19T08:23:42Z</time>
      </trkpt>
      <trkpt lat="45.44267" lon="4.06165">
        <ele>795.63</ele>
        <time>2021-09-19T08:24:06Z</time>
      </trkpt>
      <trkpt lat="45.44261" lon="4.06122">
        <ele>796.11</ele>
        <time>2021-09-19T08:24:27Z</time>
      </trkpt>
      <trkpt lat="45.44256" lon="4.06084">
        <ele>794.67</ele>
        <time>2021-09-19T08:24:48Z</time>
      </trkpt>
      <trkpt lat="45.44249" lon="4.06039">
        <ele>795.63</ele>
        <time>2021-09-19T08:25:07Z</time>
      </trkpt>
      <trkpt lat="45.4424" lon="4.05993">
        <ele>796.59</ele>
        <time>2021-09-19T08:25:28Z</time>
      </trkpt>
      <trkpt lat="45.44231" lon="4.05961">
        <ele>796.59</ele>
        <time>2021-09-19T08:25:46Z</time>
      </trkpt>
      <trkpt lat="45.44217" lon="4.05917">
        <ele>797.55</ele>
        <time>2021-09-19T08:26:07Z</time>
      </trkpt>
      <trkpt lat="45.44199" lon="4.05881">
        <ele>794.67</ele>
        <time>2021-09-19T08:26:29Z</time>
      </trkpt>
      <trkpt lat="45.44196" lon="4.05874">
        <ele>794.19</ele>
        <time>2021-09-19T08:26:32Z</time>
      </trkpt>
      <trkpt lat="45.44173" lon="4.05844">
        <ele>797.07</ele>
        <time>2021-09-19T08:26:53Z</time>
      </trkpt>
      <trkpt lat="45.44148" lon="4.05816">
        <ele>797.55</ele>
        <time>2021-09-19T08:27:15Z</time>
      </trkpt>
      <trkpt lat="45.4412" lon="4.05791">
        <ele>799.47</ele>
        <time>2021-09-19T08:27:36Z</time>
      </trkpt>
      <trkpt lat="45.44092" lon="4.05774">
        <ele>798.99</ele>
        <time>2021-09-19T08:27:59Z</time>
      </trkpt>
      <trkpt lat="45.44063" lon="4.05756">
        <ele>803.32</ele>
        <time>2021-09-19T08:28:20Z</time>
      </trkpt>
      <trkpt lat="45.44035" lon="4.05749">
        <ele>807.16</ele>
        <time>2021-09-19T08:28:39Z</time>
      </trkpt>
      <trkpt lat="45.43995" lon="4.05747">
        <ele>808.13</ele>
        <time>2021-09-19T08:29:03Z</time>
      </trkpt>
      <trkpt lat="45.43967" lon="4.05752">
        <ele>806.68</ele>
        <time>2021-09-19T08:29:24Z</time>
      </trkpt>
      <trkpt lat="45.43933" lon="4.05759">
        <ele>806.2</ele>
        <time>2021-09-19T08:29:45Z</time>
      </trkpt>
      <trkpt lat="45.43903" lon="4.05768">
        <ele>802.36</ele>
        <time>2021-09-19T08:30:11Z</time>
      </trkpt>
      <trkpt lat="45.43869" lon="4.05772">
        <ele>799.95</ele>
        <time>2021-09-19T08:30:31Z</time>
      </trkpt>
      <trkpt lat="45.4384" lon="4.05768">
        <ele>798.51</ele>
        <time>2021-09-19T08:30:55Z</time>
      </trkpt>
      <trkpt lat="45.43812" lon="4.05763">
        <ele>798.51</ele>
        <time>2021-09-19T08:31:16Z</time>
      </trkpt>
      <trkpt lat="45.43785" lon="4.05777">
        <ele>790.82</ele>
        <time>2021-09-19T08:31:38Z</time>
      </trkpt>
      <trkpt lat="45.43755" lon="4.05819">
        <ele>801.88</ele>
        <time>2021-09-19T08:32:01Z</time>
      </trkpt>
      <trkpt lat="45.43732" lon="4.05833">
        <ele>810.53</ele>
        <time>2021-09-19T08:32:21Z</time>
      </trkpt>
      <trkpt lat="45.43708" lon="4.05852">
        <ele>814.85</ele>
        <time>2021-09-19T08:32:44Z</time>
      </trkpt>
      <trkpt lat="45.4369" lon="4.05873">
        <ele>813.89</ele>
        <time>2021-09-19T08:33:06Z</time>
      </trkpt>
      <trkpt lat="45.43671" lon="4.05903">
        <ele>817.74</ele>
        <time>2021-09-19T08:33:25Z</time>
      </trkpt>
      <trkpt lat="45.43643" lon="4.05923">
        <ele>815.82</ele>
        <time>2021-09-19T08:33:47Z</time>
      </trkpt>
      <trkpt lat="45.43606" lon="4.05948">
        <ele>812.45</ele>
        <time>2021-09-19T08:34:14Z</time>
      </trkpt>
      <trkpt lat="45.43591" lon="4.05952">
        <ele>811.97</ele>
        <time>2021-09-19T08:34:24Z</time>
      </trkpt>
      <trkpt lat="45.43566" lon="4.05976">
        <ele>813.41</ele>
        <time>2021-09-19T08:34:47Z</time>
      </trkpt>
      <trkpt lat="45.43525" lon="4.05982">
        <ele>825.91</ele>
        <time>2021-09-19T08:35:13Z</time>
      </trkpt>
      <trkpt lat="45.43498" lon="4.05994">
        <ele>830.24</ele>
        <time>2021-09-19T08:35:31Z</time>
      </trkpt>
      <trkpt lat="45.43467" lon="4.06003">
        <ele>837.45</ele>
        <time>2021-09-19T08:35:55Z</time>
      </trkpt>
      <trkpt lat="45.43438" lon="4.06031">
        <ele>855.23</ele>
        <time>2021-09-19T08:36:19Z</time>
      </trkpt>
      <trkpt lat="45.43402" lon="4.06059">
        <ele>857.63</ele>
        <time>2021-09-19T08:36:45Z</time>
      </trkpt>
      <trkpt lat="45.43376" lon="4.0609">
        <ele>865.8</ele>
        <time>2021-09-19T08:37:05Z</time>
      </trkpt>
      <trkpt lat="45.43358" lon="4.06106">
        <ele>866.29</ele>
        <time>2021-09-19T08:37:24Z</time>
      </trkpt>
      <trkpt lat="45.43328" lon="4.06118">
        <ele>866.77</ele>
        <time>2021-09-19T08:37:45Z</time>
      </trkpt>
      <trkpt lat="45.43295" lon="4.06132">
        <ele>871.57</ele>
        <time>2021-09-19T08:38:07Z</time>
      </trkpt>
      <trkpt lat="45.43259" lon="4.06149">
        <ele>873.98</ele>
        <time>2021-09-19T08:38:31Z</time>
      </trkpt>
      <trkpt lat="45.43248" lon="4.06153">
        <ele>874.46</ele>
        <time>2021-09-19T08:38:39Z</time>
      </trkpt>
      <trkpt lat="45.43247" lon="4.06138">
        <ele>873.98</ele>
        <time>2021-09-19T08:38:46Z</time>
      </trkpt>
      <trkpt lat="45.43251" lon="4.06099">
        <ele>871.57</ele>
        <time>2021-09-19T08:39:07Z</time>
      </trkpt>
      <trkpt lat="45.4325" lon="4.0605">
        <ele>873.01</ele>
        <time>2021-09-19T08:39:30Z</time>
      </trkpt>
      <trkpt lat="45.43246" lon="4.06006">
        <ele>875.42</ele>
        <time>2021-09-19T08:39:51Z</time>
      </trkpt>
      <trkpt lat="45.43229" lon="4.05968">
        <ele>881.19</ele>
        <time>2021-09-19T08:40:10Z</time>
      </trkpt>
      <trkpt lat="45.43222" lon="4.05948">
        <ele>884.07</ele>
        <time>2021-09-19T08:40:22Z</time>
      </trkpt>
      <trkpt lat="45.43204" lon="4.05918">
        <ele>893.68</ele>
        <time>2021-09-19T08:40:43Z</time>
      </trkpt>
      <trkpt lat="45.43201" lon="4.05879">
        <ele>896.57</ele>
        <time>2021-09-19T08:41:03Z</time>
      </trkpt>
      <trkpt lat="45.43207" lon="4.05834">
        <ele>896.57</ele>
        <time>2021-09-19T08:41:23Z</time>
      </trkpt>
      <trkpt lat="45.43215" lon="4.05801">
        <ele>897.53</ele>
        <time>2021-09-19T08:41:41Z</time>
      </trkpt>
      <trkpt lat="45.43214" lon="4.05795">
        <ele>898.01</ele>
        <time>2021-09-19T08:41:44Z</time>
      </trkpt>
      <trkpt lat="45.43185" lon="4.05751">
        <ele>902.33</ele>
        <time>2021-09-19T08:42:09Z</time>
      </trkpt>
      <trkpt lat="45.43181" lon="4.05706">
        <ele>911.47</ele>
        <time>2021-09-19T08:42:32Z</time>
      </trkpt>
      <trkpt lat="45.43181" lon="4.05704">
        <ele>911.95</ele>
        <time>2021-09-19T08:42:33Z</time>
      </trkpt>
      <trkpt lat="45.43177" lon="4.05694">
        <ele>913.39</ele>
        <time>2021-09-19T08:42:38Z</time>
      </trkpt>
      <trkpt lat="45.43165" lon="4.05648">
        <ele>919.64</ele>
        <time>2021-09-19T08:43:02Z</time>
      </trkpt>
      <trkpt lat="45.43142" lon="4.05601">
        <ele>923</ele>
        <time>2021-09-19T08:43:26Z</time>
      </trkpt>
      <trkpt lat="45.43108" lon="4.05567">
        <ele>929.25</ele>
        <time>2021-09-19T08:43:53Z</time>
      </trkpt>
      <trkpt lat="45.43074" lon="4.05541">
        <ele>933.1</ele>
        <time>2021-09-19T08:44:19Z</time>
      </trkpt>
      <trkpt lat="45.43051" lon="4.0552">
        <ele>935.02</ele>
        <time>2021-09-19T08:44:41Z</time>
      </trkpt>
      <trkpt lat="45.43022" lon="4.05491">
        <ele>936.94</ele>
        <time>2021-09-19T08:45:06Z</time>
      </trkpt>
      <trkpt lat="45.42991" lon="4.05465">
        <ele>935.5</ele>
        <time>2021-09-19T08:45:31Z</time>
      </trkpt>
      <trkpt lat="45.4296" lon="4.05444">
        <ele>935.98</ele>
        <time>2021-09-19T08:45:54Z</time>
      </trkpt>
      <trkpt lat="45.42932" lon="4.0543">
        <ele>938.38</ele>
        <time>2021-09-19T08:46:16Z</time>
      </trkpt>
      <trkpt lat="45.42908" lon="4.05402">
        <ele>939.35</ele>
        <time>2021-09-19T08:46:37Z</time>
      </trkpt>
      <trkpt lat="45.4289" lon="4.05376">
        <ele>939.83</ele>
        <time>2021-09-19T08:46:58Z</time>
      </trkpt>
      <trkpt lat="45.4287" lon="4.05344">
        <ele>939.35</ele>
        <time>2021-09-19T08:47:21Z</time>
      </trkpt>
      <trkpt lat="45.42851" lon="4.05314">
        <ele>939.35</ele>
        <time>2021-09-19T08:47:41Z</time>
      </trkpt>
      <trkpt lat="45.42833" lon="4.05287">
        <ele>938.38</ele>
        <time>2021-09-19T08:48:01Z</time>
      </trkpt>
      <trkpt lat="45.42813" lon="4.05257">
        <ele>938.86</ele>
        <time>2021-09-19T08:48:21Z</time>
      </trkpt>
      <trkpt lat="45.42791" lon="4.05224">
        <ele>939.35</ele>
        <time>2021-09-19T08:48:43Z</time>
      </trkpt>
      <trkpt lat="45.42775" lon="4.05194">
        <ele>938.38</ele>
        <time>2021-09-19T08:49:03Z</time>
      </trkpt>
      <trkpt lat="45.42759" lon="4.05156">
        <ele>937.42</ele>
        <time>2021-09-19T08:49:23Z</time>
      </trkpt>
      <trkpt lat="45.42743" lon="4.05135">
        <ele>937.9</ele>
        <time>2021-09-19T08:49:39Z</time>
      </trkpt>
      <trkpt lat="45.42729" lon="4.05101">
        <ele>939.35</ele>
        <time>2021-09-19T08:50:00Z</time>
      </trkpt>
      <trkpt lat="45.4273" lon="4.0506">
        <ele>940.79</ele>
        <time>2021-09-19T08:50:21Z</time>
      </trkpt>
      <trkpt lat="45.42733" lon="4.05022">
        <ele>942.23</ele>
        <time>2021-09-19T08:50:40Z</time>
      </trkpt>
      <trkpt lat="45.42738" lon="4.04968">
        <ele>943.19</ele>
        <time>2021-09-19T08:51:06Z</time>
      </trkpt>
      <trkpt lat="45.42739" lon="4.04933">
        <ele>943.67</ele>
        <time>2021-09-19T08:51:24Z</time>
      </trkpt>
      <trkpt lat="45.42742" lon="4.04882">
        <ele>942.71</ele>
        <time>2021-09-19T08:51:48Z</time>
      </trkpt>
      <trkpt lat="45.4274" lon="4.04823">
        <ele>942.23</ele>
        <time>2021-09-19T08:52:14Z</time>
      </trkpt>
      <trkpt lat="45.4273" lon="4.04771">
        <ele>942.23</ele>
        <time>2021-09-19T08:52:40Z</time>
      </trkpt>
      <trkpt lat="45.42723" lon="4.04732">
        <ele>942.23</ele>
        <time>2021-09-19T08:53:01Z</time>
      </trkpt>
      <trkpt lat="45.42714" lon="4.047">
        <ele>944.63</ele>
        <time>2021-09-19T08:53:21Z</time>
      </trkpt>
      <trkpt lat="45.42708" lon="4.04664">
        <ele>946.07</ele>
        <time>2021-09-19T08:53:43Z</time>
      </trkpt>
      <trkpt lat="45.42708" lon="4.0463">
        <ele>950.88</ele>
        <time>2021-09-19T08:54:01Z</time>
      </trkpt>
      <trkpt lat="45.42723" lon="4.04596">
        <ele>955.21</ele>
        <time>2021-09-19T08:54:21Z</time>
      </trkpt>
      <trkpt lat="45.42742" lon="4.04552">
        <ele>955.69</ele>
        <time>2021-09-19T08:54:44Z</time>
      </trkpt>
      <trkpt lat="45.42746" lon="4.04515">
        <ele>952.32</ele>
        <time>2021-09-19T08:55:05Z</time>
      </trkpt>
      <trkpt lat="45.42744" lon="4.04472">
        <ele>951.36</ele>
        <time>2021-09-19T08:55:24Z</time>
      </trkpt>
      <trkpt lat="45.42741" lon="4.0444">
        <ele>948.96</ele>
        <time>2021-09-19T08:55:39Z</time>
      </trkpt>
      <trkpt lat="45.42731" lon="4.0441">
        <ele>948.48</ele>
        <time>2021-09-19T08:55:54Z</time>
      </trkpt>
      <trkpt lat="45.42732" lon="4.04364">
        <ele>951.84</ele>
        <time>2021-09-19T08:56:14Z</time>
      </trkpt>
      <trkpt lat="45.42732" lon="4.04306">
        <ele>952.8</ele>
        <time>2021-09-19T08:56:38Z</time>
      </trkpt>
      <trkpt lat="45.42726" lon="4.04252">
        <ele>948.96</ele>
        <time>2021-09-19T08:57:04Z</time>
      </trkpt>
      <trkpt lat="45.42716" lon="4.04205">
        <ele>949.92</ele>
        <time>2021-09-19T08:57:29Z</time>
      </trkpt>
      <trkpt lat="45.42713" lon="4.04161">
        <ele>949.92</ele>
        <time>2021-09-19T08:57:53Z</time>
      </trkpt>
      <trkpt lat="45.4271" lon="4.04129">
        <ele>947.52</ele>
        <time>2021-09-19T08:58:13Z</time>
      </trkpt>
      <trkpt lat="45.42701" lon="4.04068">
        <ele>955.21</ele>
        <time>2021-09-19T08:58:37Z</time>
      </trkpt>
      <trkpt lat="45.42711" lon="4.04033">
        <ele>952.32</ele>
        <time>2021-09-19T08:58:59Z</time>
      </trkpt>
      <trkpt lat="45.4272" lon="4.03997">
        <ele>948</ele>
        <time>2021-09-19T08:59:18Z</time>
      </trkpt>
      <trkpt lat="45.42728" lon="4.03957">
        <ele>945.59</ele>
        <time>2021-09-19T08:59:38Z</time>
      </trkpt>
      <trkpt lat="45.42735" lon="4.03914">
        <ele>948.96</ele>
        <time>2021-09-19T08:59:58Z</time>
      </trkpt>
      <trkpt lat="45.42736" lon="4.03864">
        <ele>953.28</ele>
        <time>2021-09-19T09:00:19Z</time>
      </trkpt>
      <trkpt lat="45.42737" lon="4.03826">
        <ele>954.25</ele>
        <time>2021-09-19T09:00:37Z</time>
      </trkpt>
      <trkpt lat="45.4274" lon="4.03768">
        <ele>954.73</ele>
        <time>2021-09-19T09:01:02Z</time>
      </trkpt>
      <trkpt lat="45.42743" lon="4.03721">
        <ele>954.73</ele>
        <time>2021-09-19T09:01:21Z</time>
      </trkpt>
      <trkpt lat="45.42738" lon="4.03686">
        <ele>954.25</ele>
        <time>2021-09-19T09:01:41Z</time>
      </trkpt>
      <trkpt lat="45.42745" lon="4.03663">
        <ele>954.73</ele>
        <time>2021-09-19T09:01:56Z</time>
      </trkpt>
      <trkpt lat="45.42768" lon="4.03617">
        <ele>951.84</ele>
        <time>2021-09-19T09:02:25Z</time>
      </trkpt>
      <trkpt lat="45.4277" lon="4.03568">
        <ele>947.52</ele>
        <time>2021-09-19T09:02:50Z</time>
      </trkpt>
      <trkpt lat="45.4277" lon="4.03522">
        <ele>945.11</ele>
        <time>2021-09-19T09:03:14Z</time>
      </trkpt>
      <trkpt lat="45.42765" lon="4.03475">
        <ele>944.63</ele>
        <time>2021-09-19T09:03:37Z</time>
      </trkpt>
      <trkpt lat="45.42758" lon="4.03436">
        <ele>942.71</ele>
        <time>2021-09-19T09:04:00Z</time>
      </trkpt>
      <trkpt lat="45.42755" lon="4.0342">
        <ele>940.31</ele>
        <time>2021-09-19T09:04:20Z</time>
      </trkpt>
      <trkpt lat="45.42753" lon="4.03412">
        <ele>940.79</ele>
        <time>2021-09-19T09:04:44Z</time>
      </trkpt>
      <trkpt lat="45.42743" lon="4.03397">
        <ele>940.79</ele>
        <time>2021-09-19T09:05:06Z</time>
      </trkpt>
      <trkpt lat="45.42734" lon="4.03419">
        <ele>975.39</ele>
        <time>2021-09-19T09:05:58Z</time>
      </trkpt>
      <trkpt lat="45.42741" lon="4.03411">
        <ele>960.98</ele>
        <time>2021-09-19T09:06:19Z</time>
      </trkpt>
      <trkpt lat="45.42753" lon="4.03418">
        <ele>955.21</ele>
        <time>2021-09-19T09:06:38Z</time>
      </trkpt>
      <trkpt lat="45.42757" lon="4.03414">
        <ele>949.92</ele>
        <time>2021-09-19T09:06:57Z</time>
      </trkpt>
      <trkpt lat="45.42757" lon="4.03414">
        <ele>948.96</ele>
        <time>2021-09-19T09:07:20Z</time>
      </trkpt>
      <trkpt lat="45.42757" lon="4.03409">
        <ele>948.48</ele>
        <time>2021-09-19T09:07:40Z</time>
      </trkpt>
      <trkpt lat="45.42759" lon="4.03407">
        <ele>948.96</ele>
        <time>2021-09-19T09:08:04Z</time>
      </trkpt>
      <trkpt lat="45.4276" lon="4.03385">
        <ele>951.84</ele>
        <time>2021-09-19T09:08:25Z</time>
      </trkpt>
      <trkpt lat="45.42756" lon="4.03347">
        <ele>949.92</ele>
        <time>2021-09-19T09:08:47Z</time>
      </trkpt>
      <trkpt lat="45.42752" lon="4.03305">
        <ele>946.07</ele>
        <time>2021-09-19T09:09:08Z</time>
      </trkpt>
      <trkpt lat="45.42754" lon="4.03269">
        <ele>941.75</ele>
        <time>2021-09-19T09:09:27Z</time>
      </trkpt>
      <trkpt lat="45.42753" lon="4.03226">
        <ele>937.42</ele>
        <time>2021-09-19T09:09:48Z</time>
      </trkpt>
      <trkpt lat="45.42756" lon="4.03181">
        <ele>930.69</ele>
        <time>2021-09-19T09:10:11Z</time>
      </trkpt>
      <trkpt lat="45.42751" lon="4.03146">
        <ele>922.52</ele>
        <time>2021-09-19T09:10:30Z</time>
      </trkpt>
      <trkpt lat="45.42743" lon="4.03102">
        <ele>916.27</ele>
        <time>2021-09-19T09:10:53Z</time>
      </trkpt>
      <trkpt lat="45.42745" lon="4.03064">
        <ele>910.51</ele>
        <time>2021-09-19T09:11:17Z</time>
      </trkpt>
      <trkpt lat="45.42755" lon="4.03007">
        <ele>908.1</ele>
        <time>2021-09-19T09:11:37Z</time>
      </trkpt>
      <trkpt lat="45.42767" lon="4.02983">
        <ele>908.1</ele>
        <time>2021-09-19T09:11:59Z</time>
      </trkpt>
      <trkpt lat="45.42759" lon="4.02971">
        <ele>907.62</ele>
        <time>2021-09-19T09:12:14Z</time>
      </trkpt>
      <trkpt lat="45.42734" lon="4.02954">
        <ele>903.78</ele>
        <time>2021-09-19T09:12:34Z</time>
      </trkpt>
      <trkpt lat="45.42723" lon="4.02952">
        <ele>906.66</ele>
        <time>2021-09-19T09:12:57Z</time>
      </trkpt>
      <trkpt lat="45.42706" lon="4.0292">
        <ele>908.58</ele>
        <time>2021-09-19T09:13:19Z</time>
      </trkpt>
      <trkpt lat="45.427" lon="4.02889">
        <ele>909.54</ele>
        <time>2021-09-19T09:13:33Z</time>
      </trkpt>
      <trkpt lat="45.42686" lon="4.02846">
        <ele>909.54</ele>
        <time>2021-09-19T09:13:54Z</time>
      </trkpt>
      <trkpt lat="45.42663" lon="4.02808">
        <ele>913.39</ele>
        <time>2021-09-19T09:14:15Z</time>
      </trkpt>
      <trkpt lat="45.42642" lon="4.02771">
        <ele>914.83</ele>
        <time>2021-09-19T09:14:37Z</time>
      </trkpt>
      <trkpt lat="45.42613" lon="4.02722">
        <ele>922.52</ele>
        <time>2021-09-19T09:15:02Z</time>
      </trkpt>
      <trkpt lat="45.42586" lon="4.02685">
        <ele>930.21</ele>
        <time>2021-09-19T09:15:26Z</time>
      </trkpt>
      <trkpt lat="45.42561" lon="4.02657">
        <ele>932.62</ele>
        <time>2021-09-19T09:15:45Z</time>
      </trkpt>
      <trkpt lat="45.42537" lon="4.02634">
        <ele>933.58</ele>
        <time>2021-09-19T09:16:05Z</time>
      </trkpt>
      <trkpt lat="45.42514" lon="4.0261">
        <ele>933.58</ele>
        <time>2021-09-19T09:16:26Z</time>
      </trkpt>
      <trkpt lat="45.42488" lon="4.0258">
        <ele>930.21</ele>
        <time>2021-09-19T09:16:49Z</time>
      </trkpt>
      <trkpt lat="45.4246" lon="4.02559">
        <ele>929.25</ele>
        <time>2021-09-19T09:17:10Z</time>
      </trkpt>
      <trkpt lat="45.42428" lon="4.02544">
        <ele>930.21</ele>
        <time>2021-09-19T09:17:33Z</time>
      </trkpt>
      <trkpt lat="45.42414" lon="4.02534">
        <ele>931.65</ele>
        <time>2021-09-19T09:17:45Z</time>
      </trkpt>
      <trkpt lat="45.42384" lon="4.0251">
        <ele>930.69</ele>
        <time>2021-09-19T09:18:09Z</time>
      </trkpt>
      <trkpt lat="45.42354" lon="4.02483">
        <ele>930.21</ele>
        <time>2021-09-19T09:18:30Z</time>
      </trkpt>
      <trkpt lat="45.42328" lon="4.02462">
        <ele>930.21</ele>
        <time>2021-09-19T09:18:55Z</time>
      </trkpt>
      <trkpt lat="45.42309" lon="4.02457">
        <ele>930.21</ele>
        <time>2021-09-19T09:19:09Z</time>
      </trkpt>
      <trkpt lat="45.42276" lon="4.02447">
        <ele>927.81</ele>
        <time>2021-09-19T09:19:31Z</time>
      </trkpt>
      <trkpt lat="45.42247" lon="4.02455">
        <ele>927.81</ele>
        <time>2021-09-19T09:19:53Z</time>
      </trkpt>
      <trkpt lat="45.42226" lon="4.02446">
        <ele>928.29</ele>
        <time>2021-09-19T09:20:13Z</time>
      </trkpt>
      <trkpt lat="45.4222" lon="4.02436">
        <ele>928.29</ele>
        <time>2021-09-19T09:20:19Z</time>
      </trkpt>
      <trkpt lat="45.42203" lon="4.02401">
        <ele>927.81</ele>
        <time>2021-09-19T09:20:39Z</time>
      </trkpt>
      <trkpt lat="45.42204" lon="4.02382">
        <ele>926.85</ele>
        <time>2021-09-19T09:20:50Z</time>
      </trkpt>
      <trkpt lat="45.42196" lon="4.02336">
        <ele>923.96</ele>
        <time>2021-09-19T09:21:14Z</time>
      </trkpt>
      <trkpt lat="45.42189" lon="4.02302">
        <ele>922.04</ele>
        <time>2021-09-19T09:21:36Z</time>
      </trkpt>
      <trkpt lat="45.42181" lon="4.02274">
        <ele>919.64</ele>
        <time>2021-09-19T09:22:03Z</time>
      </trkpt>
      <trkpt lat="45.42169" lon="4.02229">
        <ele>918.2</ele>
        <time>2021-09-19T09:22:25Z</time>
      </trkpt>
      <trkpt lat="45.42148" lon="4.02203">
        <ele>915.79</ele>
        <time>2021-09-19T09:22:45Z</time>
      </trkpt>
      <trkpt lat="45.42139" lon="4.0217">
        <ele>913.39</ele>
        <time>2021-09-19T09:23:02Z</time>
      </trkpt>
      <trkpt lat="45.42137" lon="4.02125">
        <ele>914.83</ele>
        <time>2021-09-19T09:23:28Z</time>
      </trkpt>
      <trkpt lat="45.42156" lon="4.02081">
        <ele>918.2</ele>
        <time>2021-09-19T09:23:52Z</time>
      </trkpt>
      <trkpt lat="45.42178" lon="4.02043">
        <ele>922.04</ele>
        <time>2021-09-19T09:24:17Z</time>
      </trkpt>
      <trkpt lat="45.42205" lon="4.0201">
        <ele>923.48</ele>
        <time>2021-09-19T09:24:41Z</time>
      </trkpt>
      <trkpt lat="45.42233" lon="4.01972">
        <ele>925.89</ele>
        <time>2021-09-19T09:25:09Z</time>
      </trkpt>
      <trkpt lat="45.42259" lon="4.01937">
        <ele>927.81</ele>
        <time>2021-09-19T09:25:32Z</time>
      </trkpt>
      <trkpt lat="45.42281" lon="4.01901">
        <ele>931.17</ele>
        <time>2021-09-19T09:25:56Z</time>
      </trkpt>
      <trkpt lat="45.42302" lon="4.01865">
        <ele>935.02</ele>
        <time>2021-09-19T09:26:21Z</time>
      </trkpt>
      <trkpt lat="45.42327" lon="4.0183">
        <ele>939.83</ele>
        <time>2021-09-19T09:26:46Z</time>
      </trkpt>
      <trkpt lat="45.42355" lon="4.01799">
        <ele>940.31</ele>
        <time>2021-09-19T09:27:12Z</time>
      </trkpt>
      <trkpt lat="45.42384" lon="4.01772">
        <ele>940.31</ele>
        <time>2021-09-19T09:27:36Z</time>
      </trkpt>
      <trkpt lat="45.42403" lon="4.01752">
        <ele>941.75</ele>
        <time>2021-09-19T09:27:55Z</time>
      </trkpt>
      <trkpt lat="45.42431" lon="4.01726">
        <ele>944.63</ele>
        <time>2021-09-19T09:28:19Z</time>
      </trkpt>
      <trkpt lat="45.42456" lon="4.017">
        <ele>946.56</ele>
        <time>2021-09-19T09:28:42Z</time>
      </trkpt>
      <trkpt lat="45.4248" lon="4.01669">
        <ele>950.4</ele>
        <time>2021-09-19T09:29:06Z</time>
      </trkpt>
      <trkpt lat="45.42509" lon="4.0164">
        <ele>951.36</ele>
        <time>2021-09-19T09:29:29Z</time>
      </trkpt>
      <trkpt lat="45.42536" lon="4.01614">
        <ele>952.8</ele>
        <time>2021-09-19T09:29:50Z</time>
      </trkpt>
      <trkpt lat="45.42559" lon="4.01589">
        <ele>954.25</ele>
        <time>2021-09-19T09:30:09Z</time>
      </trkpt>
      <trkpt lat="45.42579" lon="4.0156">
        <ele>953.28</ele>
        <time>2021-09-19T09:30:31Z</time>
      </trkpt>
      <trkpt lat="45.42601" lon="4.0152">
        <ele>952.32</ele>
        <time>2021-09-19T09:30:57Z</time>
      </trkpt>
      <trkpt lat="45.42624" lon="4.01497">
        <ele>949.92</ele>
        <time>2021-09-19T09:31:18Z</time>
      </trkpt>
      <trkpt lat="45.42646" lon="4.01479">
        <ele>948.96</ele>
        <time>2021-09-19T09:31:34Z</time>
      </trkpt>
      <trkpt lat="45.42667" lon="4.01458">
        <ele>948.48</ele>
        <time>2021-09-19T09:31:52Z</time>
      </trkpt>
      <trkpt lat="45.42691" lon="4.01429">
        <ele>949.44</ele>
        <time>2021-09-19T09:32:11Z</time>
      </trkpt>
      <trkpt lat="45.42721" lon="4.01357">
        <ele>950.88</ele>
        <time>2021-09-19T09:32:28Z</time>
      </trkpt>
      <trkpt lat="45.42738" lon="4.01328">
        <ele>949.92</ele>
        <time>2021-09-19T09:32:40Z</time>
      </trkpt>
      <trkpt lat="45.4274" lon="4.01329">
        <ele>949.92</ele>
        <time>2021-09-19T09:32:41Z</time>
      </trkpt>
      <trkpt lat="45.42742" lon="4.0133">
        <ele>949.92</ele>
        <time>2021-09-19T09:32:42Z</time>
      </trkpt>
      <trkpt lat="45.42771" lon="4.01345">
        <ele>950.4</ele>
        <time>2021-09-19T09:33:01Z</time>
      </trkpt>
      <trkpt lat="45.42808" lon="4.01367">
        <ele>953.77</ele>
        <time>2021-09-19T09:33:26Z</time>
      </trkpt>
      <trkpt lat="45.42834" lon="4.01387">
        <ele>954.73</ele>
        <time>2021-09-19T09:33:47Z</time>
      </trkpt>
      <trkpt lat="45.4286" lon="4.01415">
        <ele>949.44</ele>
        <time>2021-09-19T09:34:11Z</time>
      </trkpt>
      <trkpt lat="45.42893" lon="4.0143">
        <ele>947.04</ele>
        <time>2021-09-19T09:34:28Z</time>
      </trkpt>
      <trkpt lat="45.42919" lon="4.01442">
        <ele>945.59</ele>
        <time>2021-09-19T09:34:51Z</time>
      </trkpt>
      <trkpt lat="45.42954" lon="4.01454">
        <ele>945.11</ele>
        <time>2021-09-19T09:35:16Z</time>
      </trkpt>
      <trkpt lat="45.42982" lon="4.01475">
        <ele>945.11</ele>
        <time>2021-09-19T09:35:37Z</time>
      </trkpt>
      <trkpt lat="45.43016" lon="4.0149">
        <ele>946.56</ele>
        <time>2021-09-19T09:35:59Z</time>
      </trkpt>
      <trkpt lat="45.4305" lon="4.01503">
        <ele>948.48</ele>
        <time>2021-09-19T09:36:26Z</time>
      </trkpt>
      <trkpt lat="45.43082" lon="4.0152">
        <ele>948</ele>
        <time>2021-09-19T09:36:50Z</time>
      </trkpt>
      <trkpt lat="45.43108" lon="4.01546">
        <ele>946.56</ele>
        <time>2021-09-19T09:37:13Z</time>
      </trkpt>
      <trkpt lat="45.43144" lon="4.01571">
        <ele>941.75</ele>
        <time>2021-09-19T09:37:36Z</time>
      </trkpt>
      <trkpt lat="45.43181" lon="4.01588">
        <ele>945.11</ele>
        <time>2021-09-19T09:38:00Z</time>
      </trkpt>
      <trkpt lat="45.43215" lon="4.01583">
        <ele>945.11</ele>
        <time>2021-09-19T09:38:24Z</time>
      </trkpt>
      <trkpt lat="45.43216" lon="4.01587">
        <ele>944.63</ele>
        <time>2021-09-19T09:38:26Z</time>
      </trkpt>
      <trkpt lat="45.43224" lon="4.01606">
        <ele>941.27</ele>
        <time>2021-09-19T09:38:44Z</time>
      </trkpt>
      <trkpt lat="45.43236" lon="4.01611">
        <ele>944.63</ele>
        <time>2021-09-19T09:38:52Z</time>
      </trkpt>
      <trkpt lat="45.43238" lon="4.01612">
        <ele>945.11</ele>
        <time>2021-09-19T09:38:53Z</time>
      </trkpt>
      <trkpt lat="45.4324" lon="4.01612">
        <ele>945.11</ele>
        <time>2021-09-19T09:38:54Z</time>
      </trkpt>
      <trkpt lat="45.43279" lon="4.01623">
        <ele>953.77</ele>
        <time>2021-09-19T09:39:18Z</time>
      </trkpt>
      <trkpt lat="45.43311" lon="4.01644">
        <ele>957.13</ele>
        <time>2021-09-19T09:39:42Z</time>
      </trkpt>
      <trkpt lat="45.4334" lon="4.01672">
        <ele>960.49</ele>
        <time>2021-09-19T09:40:07Z</time>
      </trkpt>
      <trkpt lat="45.43371" lon="4.01703">
        <ele>963.86</ele>
        <time>2021-09-19T09:40:32Z</time>
      </trkpt>
      <trkpt lat="45.43379" lon="4.01718">
        <ele>965.78</ele>
        <time>2021-09-19T09:40:51Z</time>
      </trkpt>
      <trkpt lat="45.43418" lon="4.01739">
        <ele>967.7</ele>
        <time>2021-09-19T09:41:14Z</time>
      </trkpt>
      <trkpt lat="45.43424" lon="4.01746">
        <ele>971.07</ele>
        <time>2021-09-19T09:41:17Z</time>
      </trkpt>
      <trkpt lat="45.43434" lon="4.01748">
        <ele>976.36</ele>
        <time>2021-09-19T09:41:23Z</time>
      </trkpt>
      <trkpt lat="45.43436" lon="4.01749">
        <ele>977.32</ele>
        <time>2021-09-19T09:41:24Z</time>
      </trkpt>
      <trkpt lat="45.4345" lon="4.01756">
        <ele>981.64</ele>
        <time>2021-09-19T09:41:42Z</time>
      </trkpt>
      <trkpt lat="45.43476" lon="4.01778">
        <ele>984.53</ele>
        <time>2021-09-19T09:42:05Z</time>
      </trkpt>
      <trkpt lat="45.43506" lon="4.0181">
        <ele>982.6</ele>
        <time>2021-09-19T09:42:26Z</time>
      </trkpt>
      <trkpt lat="45.43532" lon="4.01832">
        <ele>979.24</ele>
        <time>2021-09-19T09:42:48Z</time>
      </trkpt>
      <trkpt lat="45.43553" lon="4.0186">
        <ele>977.32</ele>
        <time>2021-09-19T09:43:10Z</time>
      </trkpt>
      <trkpt lat="45.43577" lon="4.01859">
        <ele>972.99</ele>
        <time>2021-09-19T09:43:31Z</time>
      </trkpt>
      <trkpt lat="45.43615" lon="4.01879">
        <ele>971.55</ele>
        <time>2021-09-19T09:43:53Z</time>
      </trkpt>
      <trkpt lat="45.43633" lon="4.01902">
        <ele>972.99</ele>
        <time>2021-09-19T09:44:12Z</time>
      </trkpt>
      <trkpt lat="45.43667" lon="4.01924">
        <ele>978.76</ele>
        <time>2021-09-19T09:44:38Z</time>
      </trkpt>
      <trkpt lat="45.43698" lon="4.01926">
        <ele>978.28</ele>
        <time>2021-09-19T09:45:01Z</time>
      </trkpt>
      <trkpt lat="45.43729" lon="4.01948">
        <ele>977.32</ele>
        <time>2021-09-19T09:45:22Z</time>
      </trkpt>
      <trkpt lat="45.43753" lon="4.01936">
        <ele>980.68</ele>
        <time>2021-09-19T09:45:40Z</time>
      </trkpt>
      <trkpt lat="45.43757" lon="4.01906">
        <ele>976.84</ele>
        <time>2021-09-19T09:45:56Z</time>
      </trkpt>
      <trkpt lat="45.43767" lon="4.01866">
        <ele>970.11</ele>
        <time>2021-09-19T09:46:16Z</time>
      </trkpt>
      <trkpt lat="45.43779" lon="4.0183">
        <ele>960.01</ele>
        <time>2021-09-19T09:46:38Z</time>
      </trkpt>
      <trkpt lat="45.43793" lon="4.01821">
        <ele>949.92</ele>
        <time>2021-09-19T09:46:54Z</time>
      </trkpt>
      <trkpt lat="45.43792" lon="4.01795">
        <ele>935.5</ele>
        <time>2021-09-19T09:47:15Z</time>
      </trkpt>
      <trkpt lat="45.43793" lon="4.01788">
        <ele>933.1</ele>
        <time>2021-09-19T09:47:20Z</time>
      </trkpt>
      <trkpt lat="45.43808" lon="4.0174">
        <ele>936.46</ele>
        <time>2021-09-19T09:47:42Z</time>
      </trkpt>
      <trkpt lat="45.43819" lon="4.0168">
        <ele>946.07</ele>
        <time>2021-09-19T09:48:05Z</time>
      </trkpt>
      <trkpt lat="45.43822" lon="4.01638">
        <ele>951.84</ele>
        <time>2021-09-19T09:48:23Z</time>
      </trkpt>
      <trkpt lat="45.43835" lon="4.01599">
        <ele>963.38</ele>
        <time>2021-09-19T09:48:38Z</time>
      </trkpt>
      <trkpt lat="45.43858" lon="4.01574">
        <ele>966.74</ele>
        <time>2021-09-19T09:48:59Z</time>
      </trkpt>
      <trkpt lat="45.4387" lon="4.01545">
        <ele>966.26</ele>
        <time>2021-09-19T09:49:18Z</time>
      </trkpt>
      <trkpt lat="45.43887" lon="4.01494">
        <ele>968.67</ele>
        <time>2021-09-19T09:49:40Z</time>
      </trkpt>
      <trkpt lat="45.43888" lon="4.01468">
        <ele>963.86</ele>
        <time>2021-09-19T09:49:55Z</time>
      </trkpt>
      <trkpt lat="45.439" lon="4.01431">
        <ele>959.05</ele>
        <time>2021-09-19T09:50:14Z</time>
      </trkpt>
      <trkpt lat="45.43921" lon="4.01398">
        <ele>955.21</ele>
        <time>2021-09-19T09:50:35Z</time>
      </trkpt>
      <trkpt lat="45.43942" lon="4.01364">
        <ele>954.25</ele>
        <time>2021-09-19T09:50:59Z</time>
      </trkpt>
      <trkpt lat="45.43962" lon="4.01328">
        <ele>950.88</ele>
        <time>2021-09-19T09:51:19Z</time>
      </trkpt>
      <trkpt lat="45.43974" lon="4.01292">
        <ele>947.52</ele>
        <time>2021-09-19T09:51:39Z</time>
      </trkpt>
      <trkpt lat="45.43988" lon="4.01276">
        <ele>946.56</ele>
        <time>2021-09-19T09:51:50Z</time>
      </trkpt>
      <trkpt lat="45.44015" lon="4.01259">
        <ele>945.11</ele>
        <time>2021-09-19T09:52:05Z</time>
      </trkpt>
      <trkpt lat="45.44039" lon="4.01278">
        <ele>946.07</ele>
        <time>2021-09-19T09:52:23Z</time>
      </trkpt>
      <trkpt lat="45.44079" lon="4.01274">
        <ele>946.07</ele>
        <time>2021-09-19T09:52:38Z</time>
      </trkpt>
      <trkpt lat="45.44134" lon="4.01246">
        <ele>949.92</ele>
        <time>2021-09-19T09:52:54Z</time>
      </trkpt>
      <trkpt lat="45.44181" lon="4.01244">
        <ele>953.77</ele>
        <time>2021-09-19T09:53:11Z</time>
      </trkpt>
      <trkpt lat="45.44228" lon="4.01251">
        <ele>956.65</ele>
        <time>2021-09-19T09:53:28Z</time>
      </trkpt>
      <trkpt lat="45.44264" lon="4.01258">
        <ele>960.49</ele>
        <time>2021-09-19T09:53:50Z</time>
      </trkpt>
      <trkpt lat="45.44298" lon="4.01234">
        <ele>962.42</ele>
        <time>2021-09-19T09:54:12Z</time>
      </trkpt>
      <trkpt lat="45.44325" lon="4.01205">
        <ele>967.22</ele>
        <time>2021-09-19T09:54:34Z</time>
      </trkpt>
      <trkpt lat="45.44325" lon="4.01203">
        <ele>967.22</ele>
        <time>2021-09-19T09:54:35Z</time>
      </trkpt>
      <trkpt lat="45.44331" lon="4.01158">
        <ele>971.55</ele>
        <time>2021-09-19T09:54:56Z</time>
      </trkpt>
      <trkpt lat="45.44364" lon="4.01151">
        <ele>977.8</ele>
        <time>2021-09-19T09:55:15Z</time>
      </trkpt>
      <trkpt lat="45.44379" lon="4.01149">
        <ele>981.16</ele>
        <time>2021-09-19T09:55:27Z</time>
      </trkpt>
      <trkpt lat="45.44396" lon="4.0111">
        <ele>985.49</ele>
        <time>2021-09-19T09:55:48Z</time>
      </trkpt>
      <trkpt lat="45.44414" lon="4.011">
        <ele>985.49</ele>
        <time>2021-09-19T09:56:02Z</time>
      </trkpt>
      <trkpt lat="45.44447" lon="4.01118">
        <ele>986.93</ele>
        <time>2021-09-19T09:56:22Z</time>
      </trkpt>
      <trkpt lat="45.44473" lon="4.01146">
        <ele>991.26</ele>
        <time>2021-09-19T09:56:45Z</time>
      </trkpt>
      <trkpt lat="45.44478" lon="4.01136">
        <ele>992.22</ele>
        <time>2021-09-19T09:56:53Z</time>
      </trkpt>
      <trkpt lat="45.44478" lon="4.01134">
        <ele>991.74</ele>
        <time>2021-09-19T09:56:54Z</time>
      </trkpt>
      <trkpt lat="45.44478" lon="4.01131">
        <ele>991.74</ele>
        <time>2021-09-19T09:56:55Z</time>
      </trkpt>
      <trkpt lat="45.44478" lon="4.01129">
        <ele>991.26</ele>
        <time>2021-09-19T09:56:56Z</time>
      </trkpt>
      <trkpt lat="45.44478" lon="4.01126">
        <ele>991.26</ele>
        <time>2021-09-19T09:56:57Z</time>
      </trkpt>
      <trkpt lat="45.44478" lon="4.01124">
        <ele>991.26</ele>
        <time>2021-09-19T09:56:58Z</time>
      </trkpt>
      <trkpt lat="45.44478" lon="4.0108">
        <ele>989.33</ele>
        <time>2021-09-19T09:57:22Z</time>
      </trkpt>
      <trkpt lat="45.44476" lon="4.01031">
        <ele>987.41</ele>
        <time>2021-09-19T09:57:46Z</time>
      </trkpt>
      <trkpt lat="45.44474" lon="4.00992">
        <ele>985.49</ele>
        <time>2021-09-19T09:58:07Z</time>
      </trkpt>
      <trkpt lat="45.44468" lon="4.00943">
        <ele>982.12</ele>
        <time>2021-09-19T09:58:31Z</time>
      </trkpt>
      <trkpt lat="45.44464" lon="4.00897">
        <ele>980.68</ele>
        <time>2021-09-19T09:58:54Z</time>
      </trkpt>
      <trkpt lat="45.44464" lon="4.00857">
        <ele>982.6</ele>
        <time>2021-09-19T09:59:15Z</time>
      </trkpt>
      <trkpt lat="45.44469" lon="4.00796">
        <ele>988.85</ele>
        <time>2021-09-19T09:59:39Z</time>
      </trkpt>
      <trkpt lat="45.44475" lon="4.00755">
        <ele>991.74</ele>
        <time>2021-09-19T10:00:01Z</time>
      </trkpt>
      <trkpt lat="45.44477" lon="4.00704">
        <ele>992.22</ele>
        <time>2021-09-19T10:00:23Z</time>
      </trkpt>
      <trkpt lat="45.44481" lon="4.00661">
        <ele>996.54</ele>
        <time>2021-09-19T10:00:46Z</time>
      </trkpt>
      <trkpt lat="45.44483" lon="4.00662">
        <ele>997.02</ele>
        <time>2021-09-19T10:00:48Z</time>
      </trkpt>
      <trkpt lat="45.44502" lon="4.00688">
        <ele>997.51</ele>
        <time>2021-09-19T10:01:05Z</time>
      </trkpt>
      <trkpt lat="45.44527" lon="4.00732">
        <ele>1000.87</ele>
        <time>2021-09-19T10:01:30Z</time>
      </trkpt>
      <trkpt lat="45.44555" lon="4.00775">
        <ele>1004.23</ele>
        <time>2021-09-19T10:01:58Z</time>
      </trkpt>
      <trkpt lat="45.44572" lon="4.00819">
        <ele>1010</ele>
        <time>2021-09-19T10:02:20Z</time>
      </trkpt>
      <trkpt lat="45.44602" lon="4.0087">
        <ele>1015.77</ele>
        <time>2021-09-19T10:02:46Z</time>
      </trkpt>
      <trkpt lat="45.44614" lon="4.00885">
        <ele>1014.33</ele>
        <time>2021-09-19T10:03:07Z</time>
      </trkpt>
      <trkpt lat="45.44646" lon="4.00885">
        <ele>1009.04</ele>
        <time>2021-09-19T10:03:30Z</time>
      </trkpt>
      <trkpt lat="45.44659" lon="4.00895">
        <ele>1006.16</ele>
        <time>2021-09-19T10:03:51Z</time>
      </trkpt>
      <trkpt lat="45.44673" lon="4.00904">
        <ele>1005.68</ele>
        <time>2021-09-19T10:04:04Z</time>
      </trkpt>
      <trkpt lat="45.44676" lon="4.00904">
        <ele>1005.68</ele>
        <time>2021-09-19T10:04:05Z</time>
      </trkpt>
      <trkpt lat="45.44739" lon="4.00879">
        <ele>1005.68</ele>
        <time>2021-09-19T10:04:26Z</time>
      </trkpt>
      <trkpt lat="45.4479" lon="4.00884">
        <ele>1020.58</ele>
        <time>2021-09-19T10:04:53Z</time>
      </trkpt>
      <trkpt lat="45.44828" lon="4.00894">
        <ele>1029.71</ele>
        <time>2021-09-19T10:05:16Z</time>
      </trkpt>
      <trkpt lat="45.44846" lon="4.009">
        <ele>1027.79</ele>
        <time>2021-09-19T10:05:39Z</time>
      </trkpt>
      <trkpt lat="45.44884" lon="4.00907">
        <ele>1026.34</ele>
        <time>2021-09-19T10:06:02Z</time>
      </trkpt>
      <trkpt lat="45.44898" lon="4.00914">
        <ele>1026.83</ele>
        <time>2021-09-19T10:06:20Z</time>
      </trkpt>
      <trkpt lat="45.44915" lon="4.00919">
        <ele>1027.79</ele>
        <time>2021-09-19T10:06:40Z</time>
      </trkpt>
      <trkpt lat="45.44964" lon="4.00929">
        <ele>1041.73</ele>
        <time>2021-09-19T10:07:03Z</time>
      </trkpt>
      <trkpt lat="45.45004" lon="4.00932">
        <ele>1049.42</ele>
        <time>2021-09-19T10:07:25Z</time>
      </trkpt>
      <trkpt lat="45.45022" lon="4.00936">
        <ele>1051.82</ele>
        <time>2021-09-19T10:07:43Z</time>
      </trkpt>
      <trkpt lat="45.45045" lon="4.00951">
        <ele>1053.26</ele>
        <time>2021-09-19T10:08:04Z</time>
      </trkpt>
      <trkpt lat="45.45077" lon="4.00972">
        <ele>1047.97</ele>
        <time>2021-09-19T10:08:27Z</time>
      </trkpt>
      <trkpt lat="45.45102" lon="4.00992">
        <ele>1047.01</ele>
        <time>2021-09-19T10:08:51Z</time>
      </trkpt>
      <trkpt lat="45.45116" lon="4.01004">
        <ele>1047.49</ele>
        <time>2021-09-19T10:09:11Z</time>
      </trkpt>
      <trkpt lat="45.45117" lon="4.01005">
        <ele>1047.49</ele>
        <time>2021-09-19T10:09:12Z</time>
      </trkpt>
      <trkpt lat="45.45157" lon="4.01025">
        <ele>1046.53</ele>
        <time>2021-09-19T10:09:38Z</time>
      </trkpt>
      <trkpt lat="45.45184" lon="4.01033">
        <ele>1050.38</ele>
        <time>2021-09-19T10:09:55Z</time>
      </trkpt>
      <trkpt lat="45.4522" lon="4.01047">
        <ele>1057.11</ele>
        <time>2021-09-19T10:10:20Z</time>
      </trkpt>
      <trkpt lat="45.45228" lon="4.01052">
        <ele>1057.59</ele>
        <time>2021-09-19T10:10:25Z</time>
      </trkpt>
      <trkpt lat="45.4527" lon="4.01065">
        <ele>1065.28</ele>
        <time>2021-09-19T10:10:48Z</time>
      </trkpt>
      <trkpt lat="45.45293" lon="4.0107">
        <ele>1062.39</ele>
        <time>2021-09-19T10:11:10Z</time>
      </trkpt>
      <trkpt lat="45.45323" lon="4.01086">
        <ele>1055.67</ele>
        <time>2021-09-19T10:11:35Z</time>
      </trkpt>
      <trkpt lat="45.45361" lon="4.01105">
        <ele>1048.45</ele>
        <time>2021-09-19T10:11:59Z</time>
      </trkpt>
      <trkpt lat="45.45393" lon="4.01118">
        <ele>1048.45</ele>
        <time>2021-09-19T10:12:20Z</time>
      </trkpt>
      <trkpt lat="45.45421" lon="4.01087">
        <ele>1042.69</ele>
        <time>2021-09-19T10:12:45Z</time>
      </trkpt>
      <trkpt lat="45.4543" lon="4.01084">
        <ele>1043.65</ele>
        <time>2021-09-19T10:12:53Z</time>
      </trkpt>
      <trkpt lat="45.4546" lon="4.01068">
        <ele>1046.53</ele>
        <time>2021-09-19T10:13:14Z</time>
      </trkpt>
      <trkpt lat="45.45494" lon="4.01054">
        <ele>1053.26</ele>
        <time>2021-09-19T10:13:35Z</time>
      </trkpt>
      <trkpt lat="45.4553" lon="4.0104">
        <ele>1059.03</ele>
        <time>2021-09-19T10:13:56Z</time>
      </trkpt>
      <trkpt lat="45.45566" lon="4.01017">
        <ele>1063.84</ele>
        <time>2021-09-19T10:14:19Z</time>
      </trkpt>
      <trkpt lat="45.45595" lon="4.01002">
        <ele>1066.72</ele>
        <time>2021-09-19T10:14:38Z</time>
      </trkpt>
      <trkpt lat="45.45623" lon="4.00986">
        <ele>1065.76</ele>
        <time>2021-09-19T10:14:56Z</time>
      </trkpt>
      <trkpt lat="45.45647" lon="4.0097">
        <ele>1065.76</ele>
        <time>2021-09-19T10:15:13Z</time>
      </trkpt>
      <trkpt lat="45.45674" lon="4.00948">
        <ele>1064.8</ele>
        <time>2021-09-19T10:15:33Z</time>
      </trkpt>
      <trkpt lat="45.45702" lon="4.00921">
        <ele>1065.28</ele>
        <time>2021-09-19T10:15:53Z</time>
      </trkpt>
      <trkpt lat="45.45722" lon="4.0089">
        <ele>1062.87</ele>
        <time>2021-09-19T10:16:12Z</time>
      </trkpt>
      <trkpt lat="45.45742" lon="4.00861">
        <ele>1059.51</ele>
        <time>2021-09-19T10:16:31Z</time>
      </trkpt>
      <trkpt lat="45.45754" lon="4.00842">
        <ele>1059.99</ele>
        <time>2021-09-19T10:16:42Z</time>
      </trkpt>
      <trkpt lat="45.45755" lon="4.0084">
        <ele>1060.47</ele>
        <time>2021-09-19T10:16:43Z</time>
      </trkpt>
      <trkpt lat="45.45777" lon="4.00805">
        <ele>1061.91</ele>
        <time>2021-09-19T10:17:04Z</time>
      </trkpt>
      <trkpt lat="45.458" lon="4.00775">
        <ele>1064.8</ele>
        <time>2021-09-19T10:17:24Z</time>
      </trkpt>
      <trkpt lat="45.4582" lon="4.00756">
        <ele>1066.24</ele>
        <time>2021-09-19T10:17:41Z</time>
      </trkpt>
      <trkpt lat="45.45836" lon="4.00742">
        <ele>1065.76</ele>
        <time>2021-09-19T10:17:55Z</time>
      </trkpt>
      <trkpt lat="45.45866" lon="4.0071">
        <ele>1065.28</ele>
        <time>2021-09-19T10:18:18Z</time>
      </trkpt>
      <trkpt lat="45.45892" lon="4.00682">
        <ele>1067.68</ele>
        <time>2021-09-19T10:18:39Z</time>
      </trkpt>
      <trkpt lat="45.45916" lon="4.00643">
        <ele>1066.72</ele>
        <time>2021-09-19T10:19:03Z</time>
      </trkpt>
      <trkpt lat="45.45944" lon="4.00616">
        <ele>1067.2</ele>
        <time>2021-09-19T10:19:26Z</time>
      </trkpt>
      <trkpt lat="45.45978" lon="4.00595">
        <ele>1065.28</ele>
        <time>2021-09-19T10:19:51Z</time>
      </trkpt>
      <trkpt lat="45.46011" lon="4.00586">
        <ele>1066.24</ele>
        <time>2021-09-19T10:20:12Z</time>
      </trkpt>
      <trkpt lat="45.46044" lon="4.00582">
        <ele>1064.32</ele>
        <time>2021-09-19T10:20:36Z</time>
      </trkpt>
      <trkpt lat="45.46069" lon="4.00552">
        <ele>1063.36</ele>
        <time>2021-09-19T10:20:55Z</time>
      </trkpt>
      <trkpt lat="45.46077" lon="4.00502">
        <ele>1064.32</ele>
        <time>2021-09-19T10:21:17Z</time>
      </trkpt>
      <trkpt lat="45.46075" lon="4.00469">
        <ele>1064.32</ele>
        <time>2021-09-19T10:21:32Z</time>
      </trkpt>
      <trkpt lat="45.46087" lon="4.00413">
        <ele>1069.6</ele>
        <time>2021-09-19T10:21:59Z</time>
      </trkpt>
      <trkpt lat="45.46086" lon="4.00355">
        <ele>1071.53</ele>
        <time>2021-09-19T10:22:24Z</time>
      </trkpt>
      <trkpt lat="45.4607" lon="4.00314">
        <ele>1073.45</ele>
        <time>2021-09-19T10:22:47Z</time>
      </trkpt>
      <trkpt lat="45.46072" lon="4.00263">
        <ele>1074.41</ele>
        <time>2021-09-19T10:23:11Z</time>
      </trkpt>
      <trkpt lat="45.46082" lon="4.00247">
        <ele>1076.33</ele>
        <time>2021-09-19T10:23:28Z</time>
      </trkpt>
      <trkpt lat="45.46078" lon="4.00227">
        <ele>1076.81</ele>
        <time>2021-09-19T10:23:48Z</time>
      </trkpt>
      <trkpt lat="45.46081" lon="4.00174">
        <ele>1076.33</ele>
        <time>2021-09-19T10:24:12Z</time>
      </trkpt>
      <trkpt lat="45.46087" lon="4.00146">
        <ele>1079.22</ele>
        <time>2021-09-19T10:24:25Z</time>
      </trkpt>
      <trkpt lat="45.46082" lon="4.00107">
        <ele>1080.66</ele>
        <time>2021-09-19T10:24:44Z</time>
      </trkpt>
      <trkpt lat="45.46072" lon="4.00043">
        <ele>1087.87</ele>
        <time>2021-09-19T10:25:10Z</time>
      </trkpt>
      <trkpt lat="45.46063" lon="4.00025">
        <ele>1091.23</ele>
        <time>2021-09-19T10:25:22Z</time>
      </trkpt>
      <trkpt lat="45.46045" lon="3.99992">
        <ele>1096.04</ele>
        <time>2021-09-19T10:25:44Z</time>
      </trkpt>
      <trkpt lat="45.46021" lon="3.99956">
        <ele>1094.6</ele>
        <time>2021-09-19T10:26:07Z</time>
      </trkpt>
      <trkpt lat="45.46006" lon="3.99936">
        <ele>1095.56</ele>
        <time>2021-09-19T10:26:25Z</time>
      </trkpt>
      <trkpt lat="45.46005" lon="3.99936">
        <ele>1095.56</ele>
        <time>2021-09-19T10:26:26Z</time>
      </trkpt>
      <trkpt lat="45.46006" lon="3.99926">
        <ele>1097.96</ele>
        <time>2021-09-19T10:26:43Z</time>
      </trkpt>
      <trkpt lat="45.46007" lon="3.99918">
        <ele>1098.92</ele>
        <time>2021-09-19T10:27:11Z</time>
      </trkpt>
      <trkpt lat="45.45998" lon="3.99879">
        <ele>1099.4</ele>
        <time>2021-09-19T10:27:35Z</time>
      </trkpt>
      <trkpt lat="45.45984" lon="3.99845">
        <ele>1099.89</ele>
        <time>2021-09-19T10:27:56Z</time>
      </trkpt>
      <trkpt lat="45.45974" lon="3.99841">
        <ele>1099.89</ele>
        <time>2021-09-19T10:28:05Z</time>
      </trkpt>
      <trkpt lat="45.45966" lon="3.9981">
        <ele>1099.89</ele>
        <time>2021-09-19T10:28:24Z</time>
      </trkpt>
      <trkpt lat="45.45957" lon="3.99791">
        <ele>1100.37</ele>
        <time>2021-09-19T10:28:45Z</time>
      </trkpt>
      <trkpt lat="45.45952" lon="3.99732">
        <ele>1106.61</ele>
        <time>2021-09-19T10:29:07Z</time>
      </trkpt>
      <trkpt lat="45.45931" lon="3.997">
        <ele>1112.38</ele>
        <time>2021-09-19T10:29:32Z</time>
      </trkpt>
      <trkpt lat="45.45934" lon="3.99671">
        <ele>1118.15</ele>
        <time>2021-09-19T10:29:55Z</time>
      </trkpt>
      <trkpt lat="45.4594" lon="3.99637">
        <ele>1130.17</ele>
        <time>2021-09-19T10:30:13Z</time>
      </trkpt>
      <trkpt lat="45.4595" lon="3.99605">
        <ele>1134.49</ele>
        <time>2021-09-19T10:30:33Z</time>
      </trkpt>
      <trkpt lat="45.45954" lon="3.99604">
        <ele>1134.01</ele>
        <time>2021-09-19T10:30:36Z</time>
      </trkpt>
      <trkpt lat="45.45955" lon="3.99604">
        <ele>1134.01</ele>
        <time>2021-09-19T10:30:37Z</time>
      </trkpt>
      <trkpt lat="45.45957" lon="3.99604">
        <ele>1134.01</ele>
        <time>2021-09-19T10:30:38Z</time>
      </trkpt>
      <trkpt lat="45.45958" lon="3.99605">
        <ele>1133.53</ele>
        <time>2021-09-19T10:30:39Z</time>
      </trkpt>
      <trkpt lat="45.4596" lon="3.99606">
        <ele>1133.53</ele>
        <time>2021-09-19T10:30:40Z</time>
      </trkpt>
      <trkpt lat="45.45961" lon="3.99606">
        <ele>1133.53</ele>
        <time>2021-09-19T10:30:41Z</time>
      </trkpt>
      <trkpt lat="45.4598" lon="3.9963">
        <ele>1133.53</ele>
        <time>2021-09-19T10:30:59Z</time>
      </trkpt>
      <trkpt lat="45.45987" lon="3.99632">
        <ele>1132.57</ele>
        <time>2021-09-19T10:31:06Z</time>
      </trkpt>
      <trkpt lat="45.45989" lon="3.99631">
        <ele>1132.09</ele>
        <time>2021-09-19T10:31:07Z</time>
      </trkpt>
      <trkpt lat="45.4599" lon="3.99629">
        <ele>1132.09</ele>
        <time>2021-09-19T10:31:08Z</time>
      </trkpt>
      <trkpt lat="45.45991" lon="3.99627">
        <ele>1131.61</ele>
        <time>2021-09-19T10:31:09Z</time>
      </trkpt>
      <trkpt lat="45.45991" lon="3.99626">
        <ele>1131.13</ele>
        <time>2021-09-19T10:31:10Z</time>
      </trkpt>
      <trkpt lat="45.45991" lon="3.99604">
        <ele>1127.76</ele>
        <time>2021-09-19T10:31:27Z</time>
      </trkpt>
      <trkpt lat="45.45991" lon="3.996">
        <ele>1126.32</ele>
        <time>2021-09-19T10:31:53Z</time>
      </trkpt>
      <trkpt lat="45.45989" lon="3.99593">
        <ele>1128.73</ele>
        <time>2021-09-19T10:32:08Z</time>
      </trkpt>
      <trkpt lat="45.45991" lon="3.99583">
        <ele>1129.21</ele>
        <time>2021-09-19T10:32:26Z</time>
      </trkpt>
      <trkpt lat="45.4599" lon="3.99585">
        <ele>1131.61</ele>
        <time>2021-09-19T10:32:45Z</time>
      </trkpt>
      <trkpt lat="45.45991" lon="3.99582">
        <ele>1134.01</ele>
        <time>2021-09-19T10:33:05Z</time>
      </trkpt>
      <trkpt lat="45.45992" lon="3.99582">
        <ele>1134.01</ele>
        <time>2021-09-19T10:33:26Z</time>
      </trkpt>
      <trkpt lat="45.45993" lon="3.99579">
        <ele>1133.05</ele>
        <time>2021-09-19T10:33:46Z</time>
      </trkpt>
      <trkpt lat="45.45993" lon="3.99583">
        <ele>1131.13</ele>
        <time>2021-09-19T10:34:08Z</time>
      </trkpt>
      <trkpt lat="45.45993" lon="3.99577">
        <ele>1131.13</ele>
        <time>2021-09-19T10:34:28Z</time>
      </trkpt>
      <trkpt lat="45.45991" lon="3.99589">
        <ele>1130.17</ele>
        <time>2021-09-19T10:34:44Z</time>
      </trkpt>
      <trkpt lat="45.45988" lon="3.99616">
        <ele>1128.24</ele>
        <time>2021-09-19T10:35:04Z</time>
      </trkpt>
      <trkpt lat="45.45977" lon="3.99597">
        <ele>1128.24</ele>
        <time>2021-09-19T10:35:22Z</time>
      </trkpt>
      <trkpt lat="45.45982" lon="3.99595">
        <ele>1126.8</ele>
        <time>2021-09-19T10:35:36Z</time>
      </trkpt>
      <trkpt lat="45.45979" lon="3.99597">
        <ele>1126.32</ele>
        <time>2021-09-19T10:36:00Z</time>
      </trkpt>
      <trkpt lat="45.45977" lon="3.99597">
        <ele>1125.36</ele>
        <time>2021-09-19T10:36:18Z</time>
      </trkpt>
      <trkpt lat="45.45977" lon="3.996">
        <ele>1126.32</ele>
        <time>2021-09-19T10:36:37Z</time>
      </trkpt>
      <trkpt lat="45.45985" lon="3.99606">
        <ele>1131.13</ele>
        <time>2021-09-19T10:36:56Z</time>
      </trkpt>
      <trkpt lat="45.45983" lon="3.996">
        <ele>1132.57</ele>
        <time>2021-09-19T10:37:12Z</time>
      </trkpt>
      <trkpt lat="45.45983" lon="3.99601">
        <ele>1134.01</ele>
        <time>2021-09-19T10:37:35Z</time>
      </trkpt>
      <trkpt lat="45.45983" lon="3.99602">
        <ele>1133.05</ele>
        <time>2021-09-19T10:37:51Z</time>
      </trkpt>
      <trkpt lat="45.45981" lon="3.99602">
        <ele>1132.57</ele>
        <time>2021-09-19T10:38:34Z</time>
      </trkpt>
      <trkpt lat="45.45981" lon="3.99604">
        <ele>1132.57</ele>
        <time>2021-09-19T10:39:00Z</time>
      </trkpt>
      <trkpt lat="45.45981" lon="3.99603">
        <ele>1133.53</ele>
        <time>2021-09-19T10:39:38Z</time>
      </trkpt>
      <trkpt lat="45.45985" lon="3.99604">
        <ele>1134.49</ele>
        <time>2021-09-19T10:40:05Z</time>
      </trkpt>
      <trkpt lat="45.45983" lon="3.99603">
        <ele>1135.45</ele>
        <time>2021-09-19T10:40:35Z</time>
      </trkpt>
      <trkpt lat="45.4598" lon="3.99602">
        <ele>1134.97</ele>
        <time>2021-09-19T10:41:01Z</time>
      </trkpt>
      <trkpt lat="45.45979" lon="3.99603">
        <ele>1134.97</ele>
        <time>2021-09-19T10:41:28Z</time>
      </trkpt>
      <trkpt lat="45.45983" lon="3.99604">
        <ele>1135.94</ele>
        <time>2021-09-19T10:41:54Z</time>
      </trkpt>
      <trkpt lat="45.45983" lon="3.99603">
        <ele>1135.45</ele>
        <time>2021-09-19T10:42:23Z</time>
      </trkpt>
      <trkpt lat="45.45982" lon="3.99602">
        <ele>1134.97</ele>
        <time>2021-09-19T10:42:53Z</time>
      </trkpt>
      <trkpt lat="45.45982" lon="3.99603">
        <ele>1134.01</ele>
        <time>2021-09-19T10:43:25Z</time>
      </trkpt>
      <trkpt lat="45.45985" lon="3.99603">
        <ele>1134.97</ele>
        <time>2021-09-19T10:43:53Z</time>
      </trkpt>
      <trkpt lat="45.45982" lon="3.99603">
        <ele>1134.97</ele>
        <time>2021-09-19T10:44:19Z</time>
      </trkpt>
      <trkpt lat="45.4598" lon="3.99603">
        <ele>1131.13</ele>
        <time>2021-09-19T10:44:56Z</time>
      </trkpt>
      <trkpt lat="45.4598" lon="3.99602">
        <ele>1131.61</ele>
        <time>2021-09-19T10:45:25Z</time>
      </trkpt>
      <trkpt lat="45.4598" lon="3.99604">
        <ele>1130.17</ele>
        <time>2021-09-19T10:45:49Z</time>
      </trkpt>
      <trkpt lat="45.45981" lon="3.99602">
        <ele>1129.69</ele>
        <time>2021-09-19T10:46:23Z</time>
      </trkpt>
      <trkpt lat="45.45981" lon="3.99602">
        <ele>1129.21</ele>
        <time>2021-09-19T10:46:56Z</time>
      </trkpt>
      <trkpt lat="45.45979" lon="3.99601">
        <ele>1130.17</ele>
        <time>2021-09-19T10:47:19Z</time>
      </trkpt>
      <trkpt lat="45.45979" lon="3.99601">
        <ele>1131.61</ele>
        <time>2021-09-19T10:47:41Z</time>
      </trkpt>
      <trkpt lat="45.45979" lon="3.99601">
        <ele>1132.57</ele>
        <time>2021-09-19T10:48:13Z</time>
      </trkpt>
      <trkpt lat="45.45981" lon="3.99601">
        <ele>1131.13</ele>
        <time>2021-09-19T10:48:33Z</time>
      </trkpt>
      <trkpt lat="45.45981" lon="3.99601">
        <ele>1130.17</ele>
        <time>2021-09-19T10:49:00Z</time>
      </trkpt>
      <trkpt lat="45.45983" lon="3.99605">
        <ele>1130.65</ele>
        <time>2021-09-19T10:49:32Z</time>
      </trkpt>
      <trkpt lat="45.45981" lon="3.99603">
        <ele>1130.65</ele>
        <time>2021-09-19T10:49:57Z</time>
      </trkpt>
      <trkpt lat="45.4598" lon="3.996">
        <ele>1130.17</ele>
        <time>2021-09-19T10:50:23Z</time>
      </trkpt>
      <trkpt lat="45.45984" lon="3.996">
        <ele>1131.61</ele>
        <time>2021-09-19T10:50:55Z</time>
      </trkpt>
      <trkpt lat="45.45982" lon="3.99602">
        <ele>1129.69</ele>
        <time>2021-09-19T10:51:19Z</time>
      </trkpt>
      <trkpt lat="45.45985" lon="3.99602">
        <ele>1124.4</ele>
        <time>2021-09-19T10:51:52Z</time>
      </trkpt>
      <trkpt lat="45.45989" lon="3.99604">
        <ele>1126.32</ele>
        <time>2021-09-19T10:52:15Z</time>
      </trkpt>
      <trkpt lat="45.45981" lon="3.99599">
        <ele>1129.69</ele>
        <time>2021-09-19T10:52:38Z</time>
      </trkpt>
      <trkpt lat="45.45987" lon="3.996">
        <ele>1132.09</ele>
        <time>2021-09-19T10:53:11Z</time>
      </trkpt>
      <trkpt lat="45.4599" lon="3.996">
        <ele>1135.94</ele>
        <time>2021-09-19T10:53:39Z</time>
      </trkpt>
      <trkpt lat="45.4599" lon="3.99602">
        <ele>1139.78</ele>
        <time>2021-09-19T10:54:11Z</time>
      </trkpt>
      <trkpt lat="45.45992" lon="3.99606">
        <ele>1144.59</ele>
        <time>2021-09-19T10:54:43Z</time>
      </trkpt>
      <trkpt lat="45.4599" lon="3.99604">
        <ele>1141.22</ele>
        <time>2021-09-19T10:55:12Z</time>
      </trkpt>
      <trkpt lat="45.45982" lon="3.99602">
        <ele>1134.97</ele>
        <time>2021-09-19T10:55:34Z</time>
      </trkpt>
      <trkpt lat="45.45967" lon="3.99576">
        <ele>1134.97</ele>
        <time>2021-09-19T10:56:28Z</time>
      </trkpt>
      <trkpt lat="45.45974" lon="3.9959">
        <ele>1140.26</ele>
        <time>2021-09-19T10:56:58Z</time>
      </trkpt>
      <trkpt lat="45.45978" lon="3.99586">
        <ele>1140.26</ele>
        <time>2021-09-19T10:57:28Z</time>
      </trkpt>
      <trkpt lat="45.45979" lon="3.996">
        <ele>1134.01</ele>
        <time>2021-09-19T10:57:45Z</time>
      </trkpt>
      <trkpt lat="45.4598" lon="3.99601">
        <ele>1134.01</ele>
        <time>2021-09-19T10:58:11Z</time>
      </trkpt>
      <trkpt lat="45.45982" lon="3.99604">
        <ele>1134.97</ele>
        <time>2021-09-19T10:58:35Z</time>
      </trkpt>
      <trkpt lat="45.45982" lon="3.99608">
        <ele>1135.94</ele>
        <time>2021-09-19T10:59:05Z</time>
      </trkpt>
      <trkpt lat="45.45994" lon="3.99614">
        <ele>1137.38</ele>
        <time>2021-09-19T11:02:39Z</time>
      </trkpt>
      <trkpt lat="45.45994" lon="3.99614">
        <ele>1137.86</ele>
        <time>2021-09-19T11:02:59Z</time>
      </trkpt>
      <trkpt lat="45.45991" lon="3.99612">
        <ele>1135.45</ele>
        <time>2021-09-19T11:03:23Z</time>
      </trkpt>
      <trkpt lat="45.45981" lon="3.99602">
        <ele>1134.01</ele>
        <time>2021-09-19T11:03:51Z</time>
      </trkpt>
      <trkpt lat="45.45981" lon="3.99606">
        <ele>1134.49</ele>
        <time>2021-09-19T11:04:17Z</time>
      </trkpt>
      <trkpt lat="45.4598" lon="3.99613">
        <ele>1133.53</ele>
        <time>2021-09-19T11:04:41Z</time>
      </trkpt>
      <trkpt lat="45.45978" lon="3.996">
        <ele>1136.42</ele>
        <time>2021-09-19T11:05:08Z</time>
      </trkpt>
      <trkpt lat="45.45983" lon="3.99601">
        <ele>1136.9</ele>
        <time>2021-09-19T11:05:34Z</time>
      </trkpt>
      <trkpt lat="45.45986" lon="3.99608">
        <ele>1138.34</ele>
        <time>2021-09-19T11:06:01Z</time>
      </trkpt>
      <trkpt lat="45.45987" lon="3.99612">
        <ele>1132.57</ele>
        <time>2021-09-19T11:06:30Z</time>
      </trkpt>
      <trkpt lat="45.45986" lon="3.9961">
        <ele>1134.01</ele>
        <time>2021-09-19T11:07:00Z</time>
      </trkpt>
      <trkpt lat="45.45986" lon="3.99601">
        <ele>1136.42</ele>
        <time>2021-09-19T11:07:31Z</time>
      </trkpt>
      <trkpt lat="45.45987" lon="3.99599">
        <ele>1135.45</ele>
        <time>2021-09-19T11:07:55Z</time>
      </trkpt>
      <trkpt lat="45.4599" lon="3.99609">
        <ele>1128.73</ele>
        <time>2021-09-19T11:10:41Z</time>
      </trkpt>
      <trkpt lat="45.45992" lon="3.99608">
        <ele>1136.42</ele>
        <time>2021-09-19T11:11:06Z</time>
      </trkpt>
      <trkpt lat="45.45991" lon="3.99609">
        <ele>1137.38</ele>
        <time>2021-09-19T11:11:37Z</time>
      </trkpt>
      <trkpt lat="45.45987" lon="3.99607">
        <ele>1134.01</ele>
        <time>2021-09-19T11:12:11Z</time>
      </trkpt>
      <trkpt lat="45.45985" lon="3.99605">
        <ele>1135.94</ele>
        <time>2021-09-19T11:12:38Z</time>
      </trkpt>
      <trkpt lat="45.45986" lon="3.99603">
        <ele>1136.42</ele>
        <time>2021-09-19T11:13:03Z</time>
      </trkpt>
      <trkpt lat="45.45991" lon="3.99606">
        <ele>1137.38</ele>
        <time>2021-09-19T11:13:25Z</time>
      </trkpt>
      <trkpt lat="45.45991" lon="3.99615">
        <ele>1137.38</ele>
        <time>2021-09-19T11:13:50Z</time>
      </trkpt>
      <trkpt lat="45.4599" lon="3.99613">
        <ele>1139.3</ele>
        <time>2021-09-19T11:14:17Z</time>
      </trkpt>
      <trkpt lat="45.45986" lon="3.9961">
        <ele>1138.34</ele>
        <time>2021-09-19T11:14:48Z</time>
      </trkpt>
      <trkpt lat="45.45986" lon="3.99611">
        <ele>1138.34</ele>
        <time>2021-09-19T11:15:19Z</time>
      </trkpt>
      <trkpt lat="45.45987" lon="3.99611">
        <ele>1137.86</ele>
        <time>2021-09-19T11:15:47Z</time>
      </trkpt>
      <trkpt lat="45.45989" lon="3.9961">
        <ele>1137.86</ele>
        <time>2021-09-19T11:16:15Z</time>
      </trkpt>
      <trkpt lat="45.4599" lon="3.99609">
        <ele>1138.82</ele>
        <time>2021-09-19T11:16:45Z</time>
      </trkpt>
      <trkpt lat="45.45991" lon="3.9961">
        <ele>1140.26</ele>
        <time>2021-09-19T11:17:11Z</time>
      </trkpt>
      <trkpt lat="45.45989" lon="3.99607">
        <ele>1139.3</ele>
        <time>2021-09-19T11:17:36Z</time>
      </trkpt>
      <trkpt lat="45.45988" lon="3.99603">
        <ele>1138.34</ele>
        <time>2021-09-19T11:18:02Z</time>
      </trkpt>
      <trkpt lat="45.45979" lon="3.99602">
        <ele>1135.45</ele>
        <time>2021-09-19T11:18:33Z</time>
      </trkpt>
      <trkpt lat="45.45987" lon="3.99605">
        <ele>1137.86</ele>
        <time>2021-09-19T11:19:01Z</time>
      </trkpt>
      <trkpt lat="45.45987" lon="3.99606">
        <ele>1138.82</ele>
        <time>2021-09-19T11:19:26Z</time>
      </trkpt>
      <trkpt lat="45.4598" lon="3.99598">
        <ele>1139.3</ele>
        <time>2021-09-19T11:19:47Z</time>
      </trkpt>
      <trkpt lat="45.45984" lon="3.99604">
        <ele>1134.97</ele>
        <time>2021-09-19T11:20:09Z</time>
      </trkpt>
      <trkpt lat="45.45984" lon="3.99605">
        <ele>1132.57</ele>
        <time>2021-09-19T11:20:38Z</time>
      </trkpt>
      <trkpt lat="45.45985" lon="3.99603">
        <ele>1131.61</ele>
        <time>2021-09-19T11:21:05Z</time>
      </trkpt>
      <trkpt lat="45.45988" lon="3.99608">
        <ele>1132.09</ele>
        <time>2021-09-19T11:21:35Z</time>
      </trkpt>
      <trkpt lat="45.45987" lon="3.99607">
        <ele>1129.69</ele>
        <time>2021-09-19T11:21:59Z</time>
      </trkpt>
      <trkpt lat="45.45989" lon="3.99602">
        <ele>1129.21</ele>
        <time>2021-09-19T11:22:30Z</time>
      </trkpt>
      <trkpt lat="45.45982" lon="3.99607">
        <ele>1130.17</ele>
        <time>2021-09-19T11:22:53Z</time>
      </trkpt>
      <trkpt lat="45.45981" lon="3.99606">
        <ele>1131.13</ele>
        <time>2021-09-19T11:23:26Z</time>
      </trkpt>
      <trkpt lat="45.45981" lon="3.99604">
        <ele>1130.17</ele>
        <time>2021-09-19T11:23:50Z</time>
      </trkpt>
      <trkpt lat="45.45976" lon="3.996">
        <ele>1128.24</ele>
        <time>2021-09-19T11:24:15Z</time>
      </trkpt>
      <trkpt lat="45.45977" lon="3.99601">
        <ele>1128.73</ele>
        <time>2021-09-19T11:24:47Z</time>
      </trkpt>
      <trkpt lat="45.45983" lon="3.99603">
        <ele>1132.09</ele>
        <time>2021-09-19T11:25:18Z</time>
      </trkpt>
      <trkpt lat="45.45986" lon="3.99606">
        <ele>1131.13</ele>
        <time>2021-09-19T11:25:42Z</time>
      </trkpt>
      <trkpt lat="45.45983" lon="3.99604">
        <ele>1131.61</ele>
        <time>2021-09-19T11:26:02Z</time>
      </trkpt>
      <trkpt lat="45.45982" lon="3.99605">
        <ele>1132.09</ele>
        <time>2021-09-19T11:26:23Z</time>
      </trkpt>
      <trkpt lat="45.45981" lon="3.99606">
        <ele>1133.05</ele>
        <time>2021-09-19T11:26:45Z</time>
      </trkpt>
      <trkpt lat="45.45982" lon="3.99603">
        <ele>1132.57</ele>
        <time>2021-09-19T11:27:03Z</time>
      </trkpt>
      <trkpt lat="45.45981" lon="3.99601">
        <ele>1133.05</ele>
        <time>2021-09-19T11:27:30Z</time>
      </trkpt>
      <trkpt lat="45.45979" lon="3.99599">
        <ele>1133.05</ele>
        <time>2021-09-19T11:27:50Z</time>
      </trkpt>
      <trkpt lat="45.45981" lon="3.99603">
        <ele>1134.49</ele>
        <time>2021-09-19T11:28:14Z</time>
      </trkpt>
      <trkpt lat="45.45983" lon="3.99601">
        <ele>1135.94</ele>
        <time>2021-09-19T11:28:36Z</time>
      </trkpt>
      <trkpt lat="45.45987" lon="3.99638">
        <ele>1171.5</ele>
        <time>2021-09-19T12:15:30Z</time>
      </trkpt>
      <trkpt lat="45.45979" lon="3.99638">
        <ele>1137.86</ele>
        <time>2021-09-19T12:15:48Z</time>
      </trkpt>
      <trkpt lat="45.45978" lon="3.99629">
        <ele>1136.9</ele>
        <time>2021-09-19T12:16:00Z</time>
      </trkpt>
      <trkpt lat="45.45966" lon="3.99609">
        <ele>1136.9</ele>
        <time>2021-09-19T12:16:18Z</time>
      </trkpt>
      <trkpt lat="45.45958" lon="3.99599">
        <ele>1137.38</ele>
        <time>2021-09-19T12:16:27Z</time>
      </trkpt>
      <trkpt lat="45.4595" lon="3.99592">
        <ele>1139.78</ele>
        <time>2021-09-19T12:16:35Z</time>
      </trkpt>
      <trkpt lat="45.45934" lon="3.99589">
        <ele>1141.22</ele>
        <time>2021-09-19T12:16:51Z</time>
      </trkpt>
      <trkpt lat="45.45923" lon="3.99595">
        <ele>1141.7</ele>
        <time>2021-09-19T12:17:07Z</time>
      </trkpt>
      <trkpt lat="45.45921" lon="3.99603">
        <ele>1141.22</ele>
        <time>2021-09-19T12:17:25Z</time>
      </trkpt>
      <trkpt lat="45.45923" lon="3.99599">
        <ele>1141.22</ele>
        <time>2021-09-19T12:17:28Z</time>
      </trkpt>
      <trkpt lat="45.45928" lon="3.99597">
        <ele>1141.22</ele>
        <time>2021-09-19T12:17:32Z</time>
      </trkpt>
      <trkpt lat="45.45938" lon="3.99604">
        <ele>1140.26</ele>
        <time>2021-09-19T12:17:42Z</time>
      </trkpt>
      <trkpt lat="45.45948" lon="3.99619">
        <ele>1138.82</ele>
        <time>2021-09-19T12:17:59Z</time>
      </trkpt>
      <trkpt lat="45.45939" lon="3.9964">
        <ele>1137.86</ele>
        <time>2021-09-19T12:18:18Z</time>
      </trkpt>
      <trkpt lat="45.45934" lon="3.9966">
        <ele>1134.49</ele>
        <time>2021-09-19T12:18:38Z</time>
      </trkpt>
      <trkpt lat="45.45925" lon="3.99684">
        <ele>1131.13</ele>
        <time>2021-09-19T12:18:58Z</time>
      </trkpt>
      <trkpt lat="45.4593" lon="3.99697">
        <ele>1127.28</ele>
        <time>2021-09-19T12:19:15Z</time>
      </trkpt>
      <trkpt lat="45.45947" lon="3.99716">
        <ele>1121.52</ele>
        <time>2021-09-19T12:19:38Z</time>
      </trkpt>
      <trkpt lat="45.45953" lon="3.99747">
        <ele>1116.71</ele>
        <time>2021-09-19T12:20:00Z</time>
      </trkpt>
      <trkpt lat="45.45954" lon="3.99778">
        <ele>1113.34</ele>
        <time>2021-09-19T12:20:17Z</time>
      </trkpt>
      <trkpt lat="45.45957" lon="3.99803">
        <ele>1109.02</ele>
        <time>2021-09-19T12:20:35Z</time>
      </trkpt>
      <trkpt lat="45.45968" lon="3.99821">
        <ele>1103.25</ele>
        <time>2021-09-19T12:20:53Z</time>
      </trkpt>
      <trkpt lat="45.45985" lon="3.99841">
        <ele>1097</ele>
        <time>2021-09-19T12:21:14Z</time>
      </trkpt>
      <trkpt lat="45.45999" lon="3.99867">
        <ele>1094.12</ele>
        <time>2021-09-19T12:21:36Z</time>
      </trkpt>
      <trkpt lat="45.46008" lon="3.99918">
        <ele>1093.64</ele>
        <time>2021-09-19T12:21:59Z</time>
      </trkpt>
      <trkpt lat="45.46017" lon="3.99945">
        <ele>1089.79</ele>
        <time>2021-09-19T12:22:17Z</time>
      </trkpt>
      <trkpt lat="45.46031" lon="3.99966">
        <ele>1086.43</ele>
        <time>2021-09-19T12:22:34Z</time>
      </trkpt>
      <trkpt lat="45.46048" lon="3.9999">
        <ele>1084.5</ele>
        <time>2021-09-19T12:22:56Z</time>
      </trkpt>
      <trkpt lat="45.46066" lon="4.00026">
        <ele>1084.99</ele>
        <time>2021-09-19T12:23:18Z</time>
      </trkpt>
      <trkpt lat="45.46071" lon="4.00043">
        <ele>1084.99</ele>
        <time>2021-09-19T12:23:28Z</time>
      </trkpt>
      <trkpt lat="45.46076" lon="4.00065">
        <ele>1083.54</ele>
        <time>2021-09-19T12:23:40Z</time>
      </trkpt>
      <trkpt lat="45.46082" lon="4.00093">
        <ele>1080.18</ele>
        <time>2021-09-19T12:23:58Z</time>
      </trkpt>
      <trkpt lat="45.46087" lon="4.0012">
        <ele>1076.81</ele>
        <time>2021-09-19T12:24:15Z</time>
      </trkpt>
      <trkpt lat="45.46081" lon="4.00157">
        <ele>1074.89</ele>
        <time>2021-09-19T12:24:35Z</time>
      </trkpt>
      <trkpt lat="45.46077" lon="4.00185">
        <ele>1073.45</ele>
        <time>2021-09-19T12:24:53Z</time>
      </trkpt>
      <trkpt lat="45.46078" lon="4.0022">
        <ele>1070.57</ele>
        <time>2021-09-19T12:25:12Z</time>
      </trkpt>
      <trkpt lat="45.46073" lon="4.00246">
        <ele>1071.53</ele>
        <time>2021-09-19T12:25:32Z</time>
      </trkpt>
      <trkpt lat="45.46066" lon="4.0028">
        <ele>1067.68</ele>
        <time>2021-09-19T12:25:56Z</time>
      </trkpt>
      <trkpt lat="45.46073" lon="4.00316">
        <ele>1063.36</ele>
        <time>2021-09-19T12:26:18Z</time>
      </trkpt>
      <trkpt lat="45.46083" lon="4.00346">
        <ele>1062.87</ele>
        <time>2021-09-19T12:26:40Z</time>
      </trkpt>
      <trkpt lat="45.46087" lon="4.00373">
        <ele>1063.36</ele>
        <time>2021-09-19T12:26:57Z</time>
      </trkpt>
      <trkpt lat="45.46086" lon="4.00415">
        <ele>1064.8</ele>
        <time>2021-09-19T12:27:19Z</time>
      </trkpt>
      <trkpt lat="45.46079" lon="4.0045">
        <ele>1063.84</ele>
        <time>2021-09-19T12:27:43Z</time>
      </trkpt>
      <trkpt lat="45.46076" lon="4.00484">
        <ele>1059.03</ele>
        <time>2021-09-19T12:28:06Z</time>
      </trkpt>
      <trkpt lat="45.4608" lon="4.00516">
        <ele>1053.26</ele>
        <time>2021-09-19T12:28:26Z</time>
      </trkpt>
      <trkpt lat="45.46066" lon="4.00554">
        <ele>1049.9</ele>
        <time>2021-09-19T12:28:48Z</time>
      </trkpt>
      <trkpt lat="45.46046" lon="4.00578">
        <ele>1049.9</ele>
        <time>2021-09-19T12:29:09Z</time>
      </trkpt>
      <trkpt lat="45.46024" lon="4.00586">
        <ele>1048.45</ele>
        <time>2021-09-19T12:29:30Z</time>
      </trkpt>
      <trkpt lat="45.46007" lon="4.00588">
        <ele>1047.97</ele>
        <time>2021-09-19T12:29:42Z</time>
      </trkpt>
      <trkpt lat="45.45979" lon="4.00596">
        <ele>1048.45</ele>
        <time>2021-09-19T12:30:04Z</time>
      </trkpt>
      <trkpt lat="45.45953" lon="4.00613">
        <ele>1049.42</ele>
        <time>2021-09-19T12:30:27Z</time>
      </trkpt>
      <trkpt lat="45.45928" lon="4.00632">
        <ele>1049.9</ele>
        <time>2021-09-19T12:30:50Z</time>
      </trkpt>
      <trkpt lat="45.45912" lon="4.00655">
        <ele>1048.45</ele>
        <time>2021-09-19T12:31:11Z</time>
      </trkpt>
      <trkpt lat="45.4589" lon="4.00685">
        <ele>1049.42</ele>
        <time>2021-09-19T12:31:35Z</time>
      </trkpt>
      <trkpt lat="45.45874" lon="4.00706">
        <ele>1053.26</ele>
        <time>2021-09-19T12:31:52Z</time>
      </trkpt>
      <trkpt lat="45.45856" lon="4.00727">
        <ele>1051.82</ele>
        <time>2021-09-19T12:32:13Z</time>
      </trkpt>
      <trkpt lat="45.45833" lon="4.00744">
        <ele>1053.26</ele>
        <time>2021-09-19T12:32:32Z</time>
      </trkpt>
      <trkpt lat="45.45825" lon="4.00751">
        <ele>1053.26</ele>
        <time>2021-09-19T12:32:40Z</time>
      </trkpt>
      <trkpt lat="45.45802" lon="4.00775">
        <ele>1054.7</ele>
        <time>2021-09-19T12:33:03Z</time>
      </trkpt>
      <trkpt lat="45.45782" lon="4.00802">
        <ele>1056.63</ele>
        <time>2021-09-19T12:33:26Z</time>
      </trkpt>
      <trkpt lat="45.45764" lon="4.00829">
        <ele>1054.22</ele>
        <time>2021-09-19T12:33:48Z</time>
      </trkpt>
      <trkpt lat="45.45745" lon="4.00859">
        <ele>1049.42</ele>
        <time>2021-09-19T12:34:12Z</time>
      </trkpt>
      <trkpt lat="45.45724" lon="4.00891">
        <ele>1048.45</ele>
        <time>2021-09-19T12:34:34Z</time>
      </trkpt>
      <trkpt lat="45.45706" lon="4.00921">
        <ele>1049.9</ele>
        <time>2021-09-19T12:34:56Z</time>
      </trkpt>
      <trkpt lat="45.45688" lon="4.00943">
        <ele>1049.42</ele>
        <time>2021-09-19T12:35:16Z</time>
      </trkpt>
      <trkpt lat="45.45668" lon="4.00961">
        <ele>1046.05</ele>
        <time>2021-09-19T12:35:39Z</time>
      </trkpt>
      <trkpt lat="45.45642" lon="4.00974">
        <ele>1047.97</ele>
        <time>2021-09-19T12:35:57Z</time>
      </trkpt>
      <trkpt lat="45.45618" lon="4.00989">
        <ele>1054.7</ele>
        <time>2021-09-19T12:36:18Z</time>
      </trkpt>
      <trkpt lat="45.45603" lon="4.00996">
        <ele>1057.59</ele>
        <time>2021-09-19T12:36:35Z</time>
      </trkpt>
      <trkpt lat="45.45597" lon="4.00996">
        <ele>1060.95</ele>
        <time>2021-09-19T12:36:54Z</time>
      </trkpt>
      <trkpt lat="45.45592" lon="4.00993">
        <ele>1061.43</ele>
        <time>2021-09-19T12:37:12Z</time>
      </trkpt>
      <trkpt lat="45.45592" lon="4.00991">
        <ele>1059.99</ele>
        <time>2021-09-19T12:37:37Z</time>
      </trkpt>
      <trkpt lat="45.45595" lon="4.00996">
        <ele>1061.43</ele>
        <time>2021-09-19T12:37:59Z</time>
      </trkpt>
      <trkpt lat="45.45572" lon="4.01017">
        <ele>1060.47</ele>
        <time>2021-09-19T12:38:21Z</time>
      </trkpt>
      <trkpt lat="45.45533" lon="4.01042">
        <ele>1063.84</ele>
        <time>2021-09-19T12:38:43Z</time>
      </trkpt>
      <trkpt lat="45.45499" lon="4.01061">
        <ele>1066.24</ele>
        <time>2021-09-19T12:39:06Z</time>
      </trkpt>
      <trkpt lat="45.45465" lon="4.0108">
        <ele>1066.24</ele>
        <time>2021-09-19T12:39:28Z</time>
      </trkpt>
      <trkpt lat="45.45435" lon="4.01093">
        <ele>1066.24</ele>
        <time>2021-09-19T12:39:49Z</time>
      </trkpt>
      <trkpt lat="45.4541" lon="4.01125">
        <ele>1076.33</ele>
        <time>2021-09-19T12:40:06Z</time>
      </trkpt>
      <trkpt lat="45.45416" lon="4.01142">
        <ele>1073.45</ele>
        <time>2021-09-19T12:40:21Z</time>
      </trkpt>
      <trkpt lat="45.45419" lon="4.01142">
        <ele>1072.97</ele>
        <time>2021-09-19T12:40:23Z</time>
      </trkpt>
      <trkpt lat="45.45448" lon="4.01158">
        <ele>1069.12</ele>
        <time>2021-09-19T12:40:43Z</time>
      </trkpt>
      <trkpt lat="45.45454" lon="4.01161">
        <ele>1069.12</ele>
        <time>2021-09-19T12:40:45Z</time>
      </trkpt>
      <trkpt lat="45.45489" lon="4.01175">
        <ele>1072.01</ele>
        <time>2021-09-19T12:41:06Z</time>
      </trkpt>
      <trkpt lat="45.45516" lon="4.01209">
        <ele>1078.26</ele>
        <time>2021-09-19T12:41:26Z</time>
      </trkpt>
      <trkpt lat="45.45535" lon="4.01249">
        <ele>1080.66</ele>
        <time>2021-09-19T12:41:50Z</time>
      </trkpt>
      <trkpt lat="45.45553" lon="4.0128">
        <ele>1080.18</ele>
        <time>2021-09-19T12:42:13Z</time>
      </trkpt>
      <trkpt lat="45.45582" lon="4.01308">
        <ele>1079.22</ele>
        <time>2021-09-19T12:42:34Z</time>
      </trkpt>
      <trkpt lat="45.45604" lon="4.01322">
        <ele>1082.1</ele>
        <time>2021-09-19T12:42:45Z</time>
      </trkpt>
      <trkpt lat="45.45606" lon="4.01323">
        <ele>1082.1</ele>
        <time>2021-09-19T12:42:46Z</time>
      </trkpt>
      <trkpt lat="45.45629" lon="4.01347">
        <ele>1080.66</ele>
        <time>2021-09-19T12:43:07Z</time>
      </trkpt>
      <trkpt lat="45.45672" lon="4.01373">
        <ele>1081.14</ele>
        <time>2021-09-19T12:43:31Z</time>
      </trkpt>
      <trkpt lat="45.45706" lon="4.01387">
        <ele>1079.22</ele>
        <time>2021-09-19T12:43:54Z</time>
      </trkpt>
      <trkpt lat="45.45747" lon="4.01387">
        <ele>1083.54</ele>
        <time>2021-09-19T12:44:17Z</time>
      </trkpt>
      <trkpt lat="45.45784" lon="4.01387">
        <ele>1085.95</ele>
        <time>2021-09-19T12:44:42Z</time>
      </trkpt>
      <trkpt lat="45.4582" lon="4.01405">
        <ele>1085.95</ele>
        <time>2021-09-19T12:45:05Z</time>
      </trkpt>
      <trkpt lat="45.45845" lon="4.01403">
        <ele>1086.43</ele>
        <time>2021-09-19T12:45:27Z</time>
      </trkpt>
      <trkpt lat="45.45878" lon="4.01423">
        <ele>1086.43</ele>
        <time>2021-09-19T12:45:54Z</time>
      </trkpt>
      <trkpt lat="45.45926" lon="4.01431">
        <ele>1087.39</ele>
        <time>2021-09-19T12:46:19Z</time>
      </trkpt>
      <trkpt lat="45.45931" lon="4.01433">
        <ele>1090.27</ele>
        <time>2021-09-19T12:46:23Z</time>
      </trkpt>
      <trkpt lat="45.45933" lon="4.01433">
        <ele>1091.23</ele>
        <time>2021-09-19T12:46:24Z</time>
      </trkpt>
      <trkpt lat="45.45973" lon="4.01446">
        <ele>1105.65</ele>
        <time>2021-09-19T12:46:44Z</time>
      </trkpt>
      <trkpt lat="45.46008" lon="4.01448">
        <ele>1109.98</ele>
        <time>2021-09-19T12:47:06Z</time>
      </trkpt>
      <trkpt lat="45.46032" lon="4.01446">
        <ele>1110.94</ele>
        <time>2021-09-19T12:47:27Z</time>
      </trkpt>
      <trkpt lat="45.46063" lon="4.01457">
        <ele>1111.42</ele>
        <time>2021-09-19T12:47:47Z</time>
      </trkpt>
      <trkpt lat="45.46085" lon="4.0149">
        <ele>1112.86</ele>
        <time>2021-09-19T12:48:04Z</time>
      </trkpt>
      <trkpt lat="45.46086" lon="4.01498">
        <ele>1111.9</ele>
        <time>2021-09-19T12:48:08Z</time>
      </trkpt>
      <trkpt lat="45.46086" lon="4.01501">
        <ele>1111.9</ele>
        <time>2021-09-19T12:48:09Z</time>
      </trkpt>
      <trkpt lat="45.46085" lon="4.01503">
        <ele>1111.42</ele>
        <time>2021-09-19T12:48:10Z</time>
      </trkpt>
      <trkpt lat="45.46085" lon="4.01505">
        <ele>1111.42</ele>
        <time>2021-09-19T12:48:11Z</time>
      </trkpt>
      <trkpt lat="45.46085" lon="4.01507">
        <ele>1110.94</ele>
        <time>2021-09-19T12:48:12Z</time>
      </trkpt>
      <trkpt lat="45.46088" lon="4.01556">
        <ele>1105.17</ele>
        <time>2021-09-19T12:48:34Z</time>
      </trkpt>
      <trkpt lat="45.46094" lon="4.01603">
        <ele>1099.89</ele>
        <time>2021-09-19T12:48:54Z</time>
      </trkpt>
      <trkpt lat="45.46097" lon="4.01633">
        <ele>1089.79</ele>
        <time>2021-09-19T12:49:15Z</time>
      </trkpt>
      <trkpt lat="45.46077" lon="4.01692">
        <ele>1097.48</ele>
        <time>2021-09-19T12:49:35Z</time>
      </trkpt>
      <trkpt lat="45.46061" lon="4.01732">
        <ele>1104.21</ele>
        <time>2021-09-19T12:49:56Z</time>
      </trkpt>
      <trkpt lat="45.46057" lon="4.01737">
        <ele>1104.69</ele>
        <time>2021-09-19T12:49:59Z</time>
      </trkpt>
      <trkpt lat="45.46056" lon="4.01739">
        <ele>1105.17</ele>
        <time>2021-09-19T12:50:00Z</time>
      </trkpt>
      <trkpt lat="45.46018" lon="4.01787">
        <ele>1114.31</ele>
        <time>2021-09-19T12:50:21Z</time>
      </trkpt>
      <trkpt lat="45.46" lon="4.01825">
        <ele>1121.52</ele>
        <time>2021-09-19T12:50:40Z</time>
      </trkpt>
      <trkpt lat="45.45993" lon="4.01856">
        <ele>1123.44</ele>
        <time>2021-09-19T12:51:01Z</time>
      </trkpt>
      <trkpt lat="45.45965" lon="4.01909">
        <ele>1122.96</ele>
        <time>2021-09-19T12:51:26Z</time>
      </trkpt>
      <trkpt lat="45.45941" lon="4.01955">
        <ele>1124.88</ele>
        <time>2021-09-19T12:51:47Z</time>
      </trkpt>
      <trkpt lat="45.45911" lon="4.02">
        <ele>1126.32</ele>
        <time>2021-09-19T12:52:09Z</time>
      </trkpt>
      <trkpt lat="45.45896" lon="4.02052">
        <ele>1126.8</ele>
        <time>2021-09-19T12:52:32Z</time>
      </trkpt>
      <trkpt lat="45.45887" lon="4.02093">
        <ele>1127.76</ele>
        <time>2021-09-19T12:52:52Z</time>
      </trkpt>
      <trkpt lat="45.45868" lon="4.02127">
        <ele>1127.76</ele>
        <time>2021-09-19T12:53:16Z</time>
      </trkpt>
      <trkpt lat="45.45848" lon="4.02159">
        <ele>1127.28</ele>
        <time>2021-09-19T12:53:35Z</time>
      </trkpt>
      <trkpt lat="45.4583" lon="4.0222">
        <ele>1126.8</ele>
        <time>2021-09-19T12:53:56Z</time>
      </trkpt>
      <trkpt lat="45.45831" lon="4.02256">
        <ele>1126.32</ele>
        <time>2021-09-19T12:54:15Z</time>
      </trkpt>
      <trkpt lat="45.45834" lon="4.02296">
        <ele>1124.88</ele>
        <time>2021-09-19T12:54:36Z</time>
      </trkpt>
      <trkpt lat="45.45829" lon="4.02339">
        <ele>1122</ele>
        <time>2021-09-19T12:54:55Z</time>
      </trkpt>
      <trkpt lat="45.4583" lon="4.02353">
        <ele>1120.55</ele>
        <time>2021-09-19T12:55:02Z</time>
      </trkpt>
      <trkpt lat="45.45829" lon="4.02355">
        <ele>1120.55</ele>
        <time>2021-09-19T12:55:03Z</time>
      </trkpt>
      <trkpt lat="45.45828" lon="4.02358">
        <ele>1120.55</ele>
        <time>2021-09-19T12:55:04Z</time>
      </trkpt>
      <trkpt lat="45.45812" lon="4.02401">
        <ele>1120.55</ele>
        <time>2021-09-19T12:55:22Z</time>
      </trkpt>
      <trkpt lat="45.45807" lon="4.02438">
        <ele>1119.59</ele>
        <time>2021-09-19T12:55:47Z</time>
      </trkpt>
      <trkpt lat="45.45798" lon="4.02472">
        <ele>1116.23</ele>
        <time>2021-09-19T12:56:06Z</time>
      </trkpt>
      <trkpt lat="45.45788" lon="4.02505">
        <ele>1112.86</ele>
        <time>2021-09-19T12:56:25Z</time>
      </trkpt>
      <trkpt lat="45.4578" lon="4.02558">
        <ele>1108.06</ele>
        <time>2021-09-19T12:56:48Z</time>
      </trkpt>
      <trkpt lat="45.45783" lon="4.02591">
        <ele>1108.06</ele>
        <time>2021-09-19T12:57:08Z</time>
      </trkpt>
      <trkpt lat="45.45782" lon="4.02631">
        <ele>1107.58</ele>
        <time>2021-09-19T12:57:26Z</time>
      </trkpt>
      <trkpt lat="45.45833" lon="4.02672">
        <ele>1099.89</ele>
        <time>2021-09-19T12:57:48Z</time>
      </trkpt>
      <trkpt lat="45.45837" lon="4.0271">
        <ele>1094.6</ele>
        <time>2021-09-19T12:58:04Z</time>
      </trkpt>
      <trkpt lat="45.45844" lon="4.02755">
        <ele>1093.16</ele>
        <time>2021-09-19T12:58:22Z</time>
      </trkpt>
      <trkpt lat="45.45856" lon="4.02792">
        <ele>1087.87</ele>
        <time>2021-09-19T12:58:44Z</time>
      </trkpt>
      <trkpt lat="45.45869" lon="4.02831">
        <ele>1083.54</ele>
        <time>2021-09-19T12:59:03Z</time>
      </trkpt>
      <trkpt lat="45.45882" lon="4.02882">
        <ele>1079.7</ele>
        <time>2021-09-19T12:59:27Z</time>
      </trkpt>
      <trkpt lat="45.45889" lon="4.0292">
        <ele>1072.49</ele>
        <time>2021-09-19T12:59:49Z</time>
      </trkpt>
      <trkpt lat="45.45895" lon="4.02964">
        <ele>1075.37</ele>
        <time>2021-09-19T13:00:06Z</time>
      </trkpt>
      <trkpt lat="45.4589" lon="4.02998">
        <ele>1077.78</ele>
        <time>2021-09-19T13:00:21Z</time>
      </trkpt>
      <trkpt lat="45.45885" lon="4.03043">
        <ele>1080.18</ele>
        <time>2021-09-19T13:00:43Z</time>
      </trkpt>
      <trkpt lat="45.45871" lon="4.03087">
        <ele>1083.54</ele>
        <time>2021-09-19T13:01:01Z</time>
      </trkpt>
      <trkpt lat="45.45868" lon="4.03136">
        <ele>1084.99</ele>
        <time>2021-09-19T13:01:22Z</time>
      </trkpt>
      <trkpt lat="45.45856" lon="4.03177">
        <ele>1086.43</ele>
        <time>2021-09-19T13:01:41Z</time>
      </trkpt>
      <trkpt lat="45.45846" lon="4.03222">
        <ele>1087.39</ele>
        <time>2021-09-19T13:02:00Z</time>
      </trkpt>
      <trkpt lat="45.45831" lon="4.03257">
        <ele>1087.39</ele>
        <time>2021-09-19T13:02:18Z</time>
      </trkpt>
      <trkpt lat="45.45813" lon="4.03297">
        <ele>1086.91</ele>
        <time>2021-09-19T13:02:39Z</time>
      </trkpt>
      <trkpt lat="45.45816" lon="4.03348">
        <ele>1082.58</ele>
        <time>2021-09-19T13:03:01Z</time>
      </trkpt>
      <trkpt lat="45.45809" lon="4.03381">
        <ele>1075.85</ele>
        <time>2021-09-19T13:03:19Z</time>
      </trkpt>
      <trkpt lat="45.45802" lon="4.03424">
        <ele>1071.53</ele>
        <time>2021-09-19T13:03:38Z</time>
      </trkpt>
      <trkpt lat="45.45798" lon="4.03469">
        <ele>1073.45</ele>
        <time>2021-09-19T13:03:59Z</time>
      </trkpt>
      <trkpt lat="45.45789" lon="4.03508">
        <ele>1073.93</ele>
        <time>2021-09-19T13:04:17Z</time>
      </trkpt>
      <trkpt lat="45.45776" lon="4.03538">
        <ele>1073.93</ele>
        <time>2021-09-19T13:04:35Z</time>
      </trkpt>
      <trkpt lat="45.45788" lon="4.03587">
        <ele>1072.97</ele>
        <time>2021-09-19T13:04:55Z</time>
      </trkpt>
      <trkpt lat="45.45788" lon="4.03623">
        <ele>1073.45</ele>
        <time>2021-09-19T13:05:10Z</time>
      </trkpt>
      <trkpt lat="45.45787" lon="4.03672">
        <ele>1072.97</ele>
        <time>2021-09-19T13:05:30Z</time>
      </trkpt>
      <trkpt lat="45.45784" lon="4.03703">
        <ele>1072.49</ele>
        <time>2021-09-19T13:05:45Z</time>
      </trkpt>
      <trkpt lat="45.45784" lon="4.03704">
        <ele>1072.49</ele>
        <time>2021-09-19T13:05:46Z</time>
      </trkpt>
      <trkpt lat="45.45783" lon="4.03706">
        <ele>1072.49</ele>
        <time>2021-09-19T13:05:47Z</time>
      </trkpt>
      <trkpt lat="45.45783" lon="4.03708">
        <ele>1072.49</ele>
        <time>2021-09-19T13:05:48Z</time>
      </trkpt>
      <trkpt lat="45.45783" lon="4.0371">
        <ele>1072.49</ele>
        <time>2021-09-19T13:05:49Z</time>
      </trkpt>
      <trkpt lat="45.45782" lon="4.03744">
        <ele>1069.12</ele>
        <time>2021-09-19T13:06:07Z</time>
      </trkpt>
      <trkpt lat="45.45771" lon="4.03779">
        <ele>1064.32</ele>
        <time>2021-09-19T13:06:26Z</time>
      </trkpt>
      <trkpt lat="45.45768" lon="4.03811">
        <ele>1059.99</ele>
        <time>2021-09-19T13:06:45Z</time>
      </trkpt>
      <trkpt lat="45.45759" lon="4.0385">
        <ele>1052.78</ele>
        <time>2021-09-19T13:07:04Z</time>
      </trkpt>
      <trkpt lat="45.45743" lon="4.03879">
        <ele>1046.53</ele>
        <time>2021-09-19T13:07:20Z</time>
      </trkpt>
      <trkpt lat="45.45719" lon="4.03889">
        <ele>1040.76</ele>
        <time>2021-09-19T13:07:39Z</time>
      </trkpt>
      <trkpt lat="45.45678" lon="4.03892">
        <ele>1037.4</ele>
        <time>2021-09-19T13:08:01Z</time>
      </trkpt>
      <trkpt lat="45.45653" lon="4.03911">
        <ele>1035.48</ele>
        <time>2021-09-19T13:08:22Z</time>
      </trkpt>
      <trkpt lat="45.45643" lon="4.03935">
        <ele>1032.59</ele>
        <time>2021-09-19T13:08:43Z</time>
      </trkpt>
      <trkpt lat="45.45633" lon="4.03968">
        <ele>1027.31</ele>
        <time>2021-09-19T13:09:09Z</time>
      </trkpt>
      <trkpt lat="45.45622" lon="4.03997">
        <ele>1021.06</ele>
        <time>2021-09-19T13:09:31Z</time>
      </trkpt>
      <trkpt lat="45.45611" lon="4.04042">
        <ele>1013.85</ele>
        <time>2021-09-19T13:09:57Z</time>
      </trkpt>
      <trkpt lat="45.45599" lon="4.04093">
        <ele>1005.68</ele>
        <time>2021-09-19T13:10:24Z</time>
      </trkpt>
      <trkpt lat="45.45592" lon="4.04142">
        <ele>1002.79</ele>
        <time>2021-09-19T13:10:38Z</time>
      </trkpt>
      <trkpt lat="45.4559" lon="4.04192">
        <ele>996.06</ele>
        <time>2021-09-19T13:10:59Z</time>
      </trkpt>
      <trkpt lat="45.45577" lon="4.04241">
        <ele>987.41</ele>
        <time>2021-09-19T13:11:18Z</time>
      </trkpt>
      <trkpt lat="45.45576" lon="4.04243">
        <ele>986.93</ele>
        <time>2021-09-19T13:11:19Z</time>
      </trkpt>
      <trkpt lat="45.45555" lon="4.04269">
        <ele>985.01</ele>
        <time>2021-09-19T13:11:40Z</time>
      </trkpt>
      <trkpt lat="45.45531" lon="4.04294">
        <ele>985.49</ele>
        <time>2021-09-19T13:12:02Z</time>
      </trkpt>
      <trkpt lat="45.45512" lon="4.04316">
        <ele>982.6</ele>
        <time>2021-09-19T13:12:20Z</time>
      </trkpt>
      <trkpt lat="45.45489" lon="4.0434">
        <ele>980.2</ele>
        <time>2021-09-19T13:12:40Z</time>
      </trkpt>
      <trkpt lat="45.45497" lon="4.0436">
        <ele>975.39</ele>
        <time>2021-09-19T13:13:00Z</time>
      </trkpt>
      <trkpt lat="45.4551" lon="4.04371">
        <ele>971.07</ele>
        <time>2021-09-19T13:13:21Z</time>
      </trkpt>
      <trkpt lat="45.45528" lon="4.04382">
        <ele>970.11</ele>
        <time>2021-09-19T13:13:39Z</time>
      </trkpt>
      <trkpt lat="45.4559" lon="4.04402">
        <ele>974.91</ele>
        <time>2021-09-19T13:14:02Z</time>
      </trkpt>
      <trkpt lat="45.45607" lon="4.04415">
        <ele>977.32</ele>
        <time>2021-09-19T13:14:23Z</time>
      </trkpt>
      <trkpt lat="45.4561" lon="4.04409">
        <ele>976.36</ele>
        <time>2021-09-19T13:14:40Z</time>
      </trkpt>
      <trkpt lat="45.45611" lon="4.04415">
        <ele>976.36</ele>
        <time>2021-09-19T13:14:43Z</time>
      </trkpt>
      <trkpt lat="45.45655" lon="4.04482">
        <ele>976.36</ele>
        <time>2021-09-19T13:15:06Z</time>
      </trkpt>
      <trkpt lat="45.4567" lon="4.04516">
        <ele>975.88</ele>
        <time>2021-09-19T13:15:30Z</time>
      </trkpt>
      <trkpt lat="45.45693" lon="4.04561">
        <ele>974.91</ele>
        <time>2021-09-19T13:15:50Z</time>
      </trkpt>
      <trkpt lat="45.45692" lon="4.04568">
        <ele>974.43</ele>
        <time>2021-09-19T13:15:54Z</time>
      </trkpt>
      <trkpt lat="45.45694" lon="4.04594">
        <ele>969.63</ele>
        <time>2021-09-19T13:16:11Z</time>
      </trkpt>
      <trkpt lat="45.45696" lon="4.04601">
        <ele>968.67</ele>
        <time>2021-09-19T13:16:15Z</time>
      </trkpt>
      <trkpt lat="45.45719" lon="4.04631">
        <ele>961.94</ele>
        <time>2021-09-19T13:16:35Z</time>
      </trkpt>
      <trkpt lat="45.45744" lon="4.04655">
        <ele>951.36</ele>
        <time>2021-09-19T13:16:57Z</time>
      </trkpt>
      <trkpt lat="45.45773" lon="4.04681">
        <ele>940.79</ele>
        <time>2021-09-19T13:17:18Z</time>
      </trkpt>
      <trkpt lat="45.458" lon="4.04711">
        <ele>932.62</ele>
        <time>2021-09-19T13:17:40Z</time>
      </trkpt>
      <trkpt lat="45.45834" lon="4.04747">
        <ele>926.85</ele>
        <time>2021-09-19T13:18:01Z</time>
      </trkpt>
      <trkpt lat="45.45846" lon="4.04792">
        <ele>918.68</ele>
        <time>2021-09-19T13:18:23Z</time>
      </trkpt>
      <trkpt lat="45.45852" lon="4.0483">
        <ele>912.43</ele>
        <time>2021-09-19T13:18:43Z</time>
      </trkpt>
      <trkpt lat="45.45854" lon="4.04865">
        <ele>906.66</ele>
        <time>2021-09-19T13:19:03Z</time>
      </trkpt>
      <trkpt lat="45.45851" lon="4.04904">
        <ele>903.3</ele>
        <time>2021-09-19T13:19:21Z</time>
      </trkpt>
      <trkpt lat="45.45854" lon="4.04928">
        <ele>900.89</ele>
        <time>2021-09-19T13:19:47Z</time>
      </trkpt>
      <trkpt lat="45.45883" lon="4.0497">
        <ele>904.74</ele>
        <time>2021-09-19T13:20:09Z</time>
      </trkpt>
      <trkpt lat="45.45898" lon="4.05004">
        <ele>908.1</ele>
        <time>2021-09-19T13:20:31Z</time>
      </trkpt>
      <trkpt lat="45.45909" lon="4.05045">
        <ele>904.26</ele>
        <time>2021-09-19T13:20:51Z</time>
      </trkpt>
      <trkpt lat="45.45921" lon="4.05081">
        <ele>897.53</ele>
        <time>2021-09-19T13:21:11Z</time>
      </trkpt>
      <trkpt lat="45.45933" lon="4.05119">
        <ele>892.24</ele>
        <time>2021-09-19T13:21:33Z</time>
      </trkpt>
      <trkpt lat="45.45951" lon="4.0516">
        <ele>884.07</ele>
        <time>2021-09-19T13:21:59Z</time>
      </trkpt>
      <trkpt lat="45.45957" lon="4.05197">
        <ele>878.78</ele>
        <time>2021-09-19T13:22:19Z</time>
      </trkpt>
      <trkpt lat="45.45947" lon="4.05227">
        <ele>873.5</ele>
        <time>2021-09-19T13:22:39Z</time>
      </trkpt>
      <trkpt lat="45.45933" lon="4.05255">
        <ele>873.5</ele>
        <time>2021-09-19T13:22:55Z</time>
      </trkpt>
      <trkpt lat="45.45937" lon="4.05288">
        <ele>875.42</ele>
        <time>2021-09-19T13:23:14Z</time>
      </trkpt>
      <trkpt lat="45.45952" lon="4.05308">
        <ele>874.94</ele>
        <time>2021-09-19T13:23:29Z</time>
      </trkpt>
      <trkpt lat="45.4599" lon="4.05356">
        <ele>872.05</ele>
        <time>2021-09-19T13:23:55Z</time>
      </trkpt>
      <trkpt lat="45.46021" lon="4.05385">
        <ele>866.29</ele>
        <time>2021-09-19T13:24:12Z</time>
      </trkpt>
      <trkpt lat="45.46047" lon="4.05408">
        <ele>860.52</ele>
        <time>2021-09-19T13:24:32Z</time>
      </trkpt>
      <trkpt lat="45.46074" lon="4.05436">
        <ele>857.63</ele>
        <time>2021-09-19T13:24:53Z</time>
      </trkpt>
      <trkpt lat="45.46101" lon="4.05458">
        <ele>854.75</ele>
        <time>2021-09-19T13:25:15Z</time>
      </trkpt>
      <trkpt lat="45.46132" lon="4.05486">
        <ele>850.42</ele>
        <time>2021-09-19T13:25:37Z</time>
      </trkpt>
      <trkpt lat="45.46155" lon="4.05524">
        <ele>845.14</ele>
        <time>2021-09-19T13:26:00Z</time>
      </trkpt>
      <trkpt lat="45.46175" lon="4.05564">
        <ele>838.89</ele>
        <time>2021-09-19T13:26:26Z</time>
      </trkpt>
      <trkpt lat="45.46198" lon="4.056">
        <ele>833.6</ele>
        <time>2021-09-19T13:26:48Z</time>
      </trkpt>
      <trkpt lat="45.46217" lon="4.05642">
        <ele>829.27</ele>
        <time>2021-09-19T13:27:10Z</time>
      </trkpt>
      <trkpt lat="45.4623" lon="4.0568">
        <ele>823.03</ele>
        <time>2021-09-19T13:27:30Z</time>
      </trkpt>
      <trkpt lat="45.46246" lon="4.05725">
        <ele>818.7</ele>
        <time>2021-09-19T13:27:51Z</time>
      </trkpt>
      <trkpt lat="45.46263" lon="4.05776">
        <ele>817.26</ele>
        <time>2021-09-19T13:28:14Z</time>
      </trkpt>
      <trkpt lat="45.46279" lon="4.05813">
        <ele>815.34</ele>
        <time>2021-09-19T13:28:35Z</time>
      </trkpt>
      <trkpt lat="45.46287" lon="4.05842">
        <ele>814.37</ele>
        <time>2021-09-19T13:28:50Z</time>
      </trkpt>
      <trkpt lat="45.46306" lon="4.05891">
        <ele>809.57</ele>
        <time>2021-09-19T13:29:18Z</time>
      </trkpt>
      <trkpt lat="45.46316" lon="4.05905">
        <ele>808.61</ele>
        <time>2021-09-19T13:29:27Z</time>
      </trkpt>
      <trkpt lat="45.46345" lon="4.0593">
        <ele>808.61</ele>
        <time>2021-09-19T13:29:48Z</time>
      </trkpt>
      <trkpt lat="45.46371" lon="4.05965">
        <ele>808.13</ele>
        <time>2021-09-19T13:30:11Z</time>
      </trkpt>
      <trkpt lat="45.46394" lon="4.05995">
        <ele>808.61</ele>
        <time>2021-09-19T13:30:34Z</time>
      </trkpt>
      <trkpt lat="45.4642" lon="4.0602">
        <ele>809.09</ele>
        <time>2021-09-19T13:30:57Z</time>
      </trkpt>
      <trkpt lat="45.46444" lon="4.06046">
        <ele>809.09</ele>
        <time>2021-09-19T13:31:22Z</time>
      </trkpt>
      <trkpt lat="45.46448" lon="4.06053">
        <ele>809.09</ele>
        <time>2021-09-19T13:31:27Z</time>
      </trkpt>
      <trkpt lat="45.46465" lon="4.06091">
        <ele>807.16</ele>
        <time>2021-09-19T13:31:49Z</time>
      </trkpt>
      <trkpt lat="45.46493" lon="4.06135">
        <ele>807.64</ele>
        <time>2021-09-19T13:32:14Z</time>
      </trkpt>
      <trkpt lat="45.46518" lon="4.06168">
        <ele>809.09</ele>
        <time>2021-09-19T13:32:37Z</time>
      </trkpt>
      <trkpt lat="45.4652" lon="4.0617">
        <ele>809.09</ele>
        <time>2021-09-19T13:32:38Z</time>
      </trkpt>
      <trkpt lat="45.46522" lon="4.06171">
        <ele>809.09</ele>
        <time>2021-09-19T13:32:39Z</time>
      </trkpt>
      <trkpt lat="45.46524" lon="4.06173">
        <ele>809.09</ele>
        <time>2021-09-19T13:32:40Z</time>
      </trkpt>
      <trkpt lat="45.46526" lon="4.06175">
        <ele>809.09</ele>
        <time>2021-09-19T13:32:41Z</time>
      </trkpt>
      <trkpt lat="45.46546" lon="4.06214">
        <ele>809.09</ele>
        <time>2021-09-19T13:33:05Z</time>
      </trkpt>
      <trkpt lat="45.46562" lon="4.0627">
        <ele>808.13</ele>
        <time>2021-09-19T13:33:30Z</time>
      </trkpt>
      <trkpt lat="45.4657" lon="4.06315">
        <ele>807.64</ele>
        <time>2021-09-19T13:33:50Z</time>
      </trkpt>
      <trkpt lat="45.4659" lon="4.06359">
        <ele>806.2</ele>
        <time>2021-09-19T13:34:15Z</time>
      </trkpt>
      <trkpt lat="45.46614" lon="4.06405">
        <ele>805.24</ele>
        <time>2021-09-19T13:34:37Z</time>
      </trkpt>
      <trkpt lat="45.46643" lon="4.06462">
        <ele>804.76</ele>
        <time>2021-09-19T13:35:06Z</time>
      </trkpt>
      <trkpt lat="45.46676" lon="4.06509">
        <ele>803.8</ele>
        <time>2021-09-19T13:35:33Z</time>
      </trkpt>
      <trkpt lat="45.46696" lon="4.06553">
        <ele>798.99</ele>
        <time>2021-09-19T13:35:52Z</time>
      </trkpt>
      <trkpt lat="45.46715" lon="4.06585">
        <ele>797.07</ele>
        <time>2021-09-19T13:36:14Z</time>
      </trkpt>
      <trkpt lat="45.46727" lon="4.06602">
        <ele>795.15</ele>
        <time>2021-09-19T13:36:29Z</time>
      </trkpt>
      <trkpt lat="45.46763" lon="4.06599">
        <ele>792.26</ele>
        <time>2021-09-19T13:36:47Z</time>
      </trkpt>
      <trkpt lat="45.4679" lon="4.06597">
        <ele>791.78</ele>
        <time>2021-09-19T13:37:05Z</time>
      </trkpt>
      <trkpt lat="45.46797" lon="4.06602">
        <ele>791.78</ele>
        <time>2021-09-19T13:37:11Z</time>
      </trkpt>
      <trkpt lat="45.46798" lon="4.06603">
        <ele>791.78</ele>
        <time>2021-09-19T13:37:12Z</time>
      </trkpt>
      <trkpt lat="45.46799" lon="4.06605">
        <ele>791.78</ele>
        <time>2021-09-19T13:37:13Z</time>
      </trkpt>
      <trkpt lat="45.468" lon="4.06606">
        <ele>791.78</ele>
        <time>2021-09-19T13:37:14Z</time>
      </trkpt>
      <trkpt lat="45.46801" lon="4.06608">
        <ele>791.78</ele>
        <time>2021-09-19T13:37:15Z</time>
      </trkpt>
      <trkpt lat="45.46822" lon="4.06649">
        <ele>789.38</ele>
        <time>2021-09-19T13:37:38Z</time>
      </trkpt>
      <trkpt lat="45.46853" lon="4.06676">
        <ele>788.42</ele>
        <time>2021-09-19T13:37:58Z</time>
      </trkpt>
      <trkpt lat="45.46873" lon="4.06703">
        <ele>782.65</ele>
        <time>2021-09-19T13:38:18Z</time>
      </trkpt>
      <trkpt lat="45.46882" lon="4.06723">
        <ele>778.81</ele>
        <time>2021-09-19T13:38:29Z</time>
      </trkpt>
      <trkpt lat="45.46904" lon="4.06762">
        <ele>777.36</ele>
        <time>2021-09-19T13:38:49Z</time>
      </trkpt>
      <trkpt lat="45.46911" lon="4.06783">
        <ele>776.4</ele>
        <time>2021-09-19T13:39:07Z</time>
      </trkpt>
      <trkpt lat="45.46907" lon="4.06778">
        <ele>775.92</ele>
        <time>2021-09-19T13:39:20Z</time>
      </trkpt>
      <trkpt lat="45.4691" lon="4.06779">
        <ele>775.44</ele>
        <time>2021-09-19T13:39:53Z</time>
      </trkpt>
      <trkpt lat="45.4691" lon="4.06781">
        <ele>778.32</ele>
        <time>2021-09-19T13:40:18Z</time>
      </trkpt>
      <trkpt lat="45.46918" lon="4.06791">
        <ele>778.81</ele>
        <time>2021-09-19T13:40:39Z</time>
      </trkpt>
      <trkpt lat="45.46917" lon="4.06814">
        <ele>774.96</ele>
        <time>2021-09-19T13:40:59Z</time>
      </trkpt>
      <trkpt lat="45.46908" lon="4.06828">
        <ele>773.04</ele>
        <time>2021-09-19T13:41:11Z</time>
      </trkpt>
      <trkpt lat="45.46884" lon="4.06848">
        <ele>769.19</ele>
        <time>2021-09-19T13:41:32Z</time>
      </trkpt>
      <trkpt lat="45.46873" lon="4.06862">
        <ele>763.42</ele>
        <time>2021-09-19T13:41:50Z</time>
      </trkpt>
      <trkpt lat="45.46849" lon="4.06893">
        <ele>759.58</ele>
        <time>2021-09-19T13:42:11Z</time>
      </trkpt>
      <trkpt lat="45.46825" lon="4.06902">
        <ele>760.54</ele>
        <time>2021-09-19T13:42:27Z</time>
      </trkpt>
      <trkpt lat="45.46791" lon="4.06884">
        <ele>760.06</ele>
        <time>2021-09-19T13:42:49Z</time>
      </trkpt>
      <trkpt lat="45.46759" lon="4.06905">
        <ele>756.21</ele>
        <time>2021-09-19T13:43:11Z</time>
      </trkpt>
      <trkpt lat="45.46731" lon="4.06929">
        <ele>753.81</ele>
        <time>2021-09-19T13:43:32Z</time>
      </trkpt>
      <trkpt lat="45.467" lon="4.06948">
        <ele>751.89</ele>
        <time>2021-09-19T13:43:53Z</time>
      </trkpt>
      <trkpt lat="45.46667" lon="4.06966">
        <ele>751.41</ele>
        <time>2021-09-19T13:44:14Z</time>
      </trkpt>
      <trkpt lat="45.46632" lon="4.06975">
        <ele>751.89</ele>
        <time>2021-09-19T13:44:36Z</time>
      </trkpt>
      <trkpt lat="45.46595" lon="4.06972">
        <ele>751.41</ele>
        <time>2021-09-19T13:45:00Z</time>
      </trkpt>
      <trkpt lat="45.46562" lon="4.06977">
        <ele>751.41</ele>
        <time>2021-09-19T13:45:24Z</time>
      </trkpt>
      <trkpt lat="45.4653" lon="4.07003">
        <ele>747.08</ele>
        <time>2021-09-19T13:45:48Z</time>
      </trkpt>
      <trkpt lat="45.46495" lon="4.07025">
        <ele>742.28</ele>
        <time>2021-09-19T13:46:15Z</time>
      </trkpt>
      <trkpt lat="45.4646" lon="4.07026">
        <ele>741.31</ele>
        <time>2021-09-19T13:46:40Z</time>
      </trkpt>
      <trkpt lat="45.46421" lon="4.07016">
        <ele>743.24</ele>
        <time>2021-09-19T13:47:06Z</time>
      </trkpt>
      <trkpt lat="45.46388" lon="4.07">
        <ele>745.64</ele>
        <time>2021-09-19T13:47:32Z</time>
      </trkpt>
      <trkpt lat="45.46358" lon="4.06982">
        <ele>749</ele>
        <time>2021-09-19T13:47:54Z</time>
      </trkpt>
      <trkpt lat="45.46331" lon="4.06963">
        <ele>749.97</ele>
        <time>2021-09-19T13:48:14Z</time>
      </trkpt>
      <trkpt lat="45.46306" lon="4.06936">
        <ele>752.37</ele>
        <time>2021-09-19T13:48:35Z</time>
      </trkpt>
      <trkpt lat="45.46298" lon="4.06923">
        <ele>751.41</ele>
        <time>2021-09-19T13:48:43Z</time>
      </trkpt>
      <trkpt lat="45.46297" lon="4.06922">
        <ele>751.41</ele>
        <time>2021-09-19T13:48:44Z</time>
      </trkpt>
      <trkpt lat="45.46296" lon="4.06921">
        <ele>751.41</ele>
        <time>2021-09-19T13:48:45Z</time>
      </trkpt>
      <trkpt lat="45.46295" lon="4.06919">
        <ele>751.41</ele>
        <time>2021-09-19T13:48:46Z</time>
      </trkpt>
      <trkpt lat="45.46294" lon="4.06918">
        <ele>750.93</ele>
        <time>2021-09-19T13:48:47Z</time>
      </trkpt>
      <trkpt lat="45.46293" lon="4.06916">
        <ele>750.93</ele>
        <time>2021-09-19T13:48:48Z</time>
      </trkpt>
      <trkpt lat="45.46292" lon="4.06915">
        <ele>750.93</ele>
        <time>2021-09-19T13:48:49Z</time>
      </trkpt>
      <trkpt lat="45.46271" lon="4.0689">
        <ele>750.93</ele>
        <time>2021-09-19T13:49:13Z</time>
      </trkpt>
      <trkpt lat="45.46241" lon="4.06865">
        <ele>751.89</ele>
        <time>2021-09-19T13:49:36Z</time>
      </trkpt>
      <trkpt lat="45.46216" lon="4.06858">
        <ele>752.85</ele>
        <time>2021-09-19T13:50:01Z</time>
      </trkpt>
      <trkpt lat="45.4619" lon="4.06848">
        <ele>753.33</ele>
        <time>2021-09-19T13:50:22Z</time>
      </trkpt>
      <trkpt lat="45.46162" lon="4.06829">
        <ele>752.37</ele>
        <time>2021-09-19T13:50:45Z</time>
      </trkpt>
      <trkpt lat="45.46135" lon="4.06823">
        <ele>751.89</ele>
        <time>2021-09-19T13:51:07Z</time>
      </trkpt>
      <trkpt lat="45.46112" lon="4.06801">
        <ele>751.89</ele>
        <time>2021-09-19T13:51:29Z</time>
      </trkpt>
      <trkpt lat="45.46097" lon="4.06774">
        <ele>751.89</ele>
        <time>2021-09-19T13:51:49Z</time>
      </trkpt>
      <trkpt lat="45.46044" lon="4.06757">
        <ele>756.21</ele>
        <time>2021-09-19T13:52:10Z</time>
      </trkpt>
      <trkpt lat="45.46023" lon="4.06748">
        <ele>757.18</ele>
        <time>2021-09-19T13:52:31Z</time>
      </trkpt>
      <trkpt lat="45.46024" lon="4.0675">
        <ele>757.18</ele>
        <time>2021-09-19T13:52:32Z</time>
      </trkpt>
      <trkpt lat="45.46032" lon="4.06791">
        <ele>753.81</ele>
        <time>2021-09-19T13:52:56Z</time>
      </trkpt>
      <trkpt lat="45.46045" lon="4.06841">
        <ele>753.33</ele>
        <time>2021-09-19T13:53:20Z</time>
      </trkpt>
      <trkpt lat="45.46054" lon="4.06889">
        <ele>758.62</ele>
        <time>2021-09-19T13:53:43Z</time>
      </trkpt>
      <trkpt lat="45.4607" lon="4.06945">
        <ele>761.5</ele>
        <time>2021-09-19T13:54:11Z</time>
      </trkpt>
      <trkpt lat="45.46075" lon="4.06963">
        <ele>762.94</ele>
        <time>2021-09-19T13:54:31Z</time>
      </trkpt>
      <trkpt lat="45.46079" lon="4.0697">
        <ele>761.98</ele>
        <time>2021-09-19T13:54:37Z</time>
      </trkpt>
      <trkpt lat="45.4609" lon="4.07002">
        <ele>761.02</ele>
        <time>2021-09-19T13:54:57Z</time>
      </trkpt>
      <trkpt lat="45.46076" lon="4.06997">
        <ele>761.02</ele>
        <time>2021-09-19T13:55:15Z</time>
      </trkpt>
      <trkpt lat="45.46071" lon="4.07">
        <ele>761.5</ele>
        <time>2021-09-19T13:55:21Z</time>
      </trkpt>
      <trkpt lat="45.4606" lon="4.07041">
        <ele>765.35</ele>
        <time>2021-09-19T13:55:46Z</time>
      </trkpt>
      <trkpt lat="45.46065" lon="4.07096">
        <ele>765.35</ele>
        <time>2021-09-19T13:56:05Z</time>
      </trkpt>
      <trkpt lat="45.46075" lon="4.07147">
        <ele>763.42</ele>
        <time>2021-09-19T13:56:32Z</time>
      </trkpt>
      <trkpt lat="45.46084" lon="4.07184">
        <ele>762.46</ele>
        <time>2021-09-19T13:56:52Z</time>
      </trkpt>
      <trkpt lat="45.46066" lon="4.0721">
        <ele>764.87</ele>
        <time>2021-09-19T13:57:12Z</time>
      </trkpt>
      <trkpt lat="45.46032" lon="4.07244">
        <ele>781.69</ele>
        <time>2021-09-19T13:57:30Z</time>
      </trkpt>
      <trkpt lat="45.46014" lon="4.07263">
        <ele>780.73</ele>
        <time>2021-09-19T13:57:45Z</time>
      </trkpt>
      <trkpt lat="45.46" lon="4.07276">
        <ele>779.29</ele>
        <time>2021-09-19T13:58:02Z</time>
      </trkpt>
      <trkpt lat="45.45982" lon="4.07324">
        <ele>773.52</ele>
        <time>2021-09-19T13:58:27Z</time>
      </trkpt>
      <trkpt lat="45.45977" lon="4.07334">
        <ele>771.11</ele>
        <time>2021-09-19T13:58:33Z</time>
      </trkpt>
      <trkpt lat="45.45946" lon="4.0737">
        <ele>767.27</ele>
        <time>2021-09-19T13:59:01Z</time>
      </trkpt>
      <trkpt lat="45.45909" lon="4.07403">
        <ele>770.15</ele>
        <time>2021-09-19T13:59:24Z</time>
      </trkpt>
      <trkpt lat="45.45886" lon="4.07433">
        <ele>767.75</ele>
        <time>2021-09-19T13:59:47Z</time>
      </trkpt>
      <trkpt lat="45.45861" lon="4.07459">
        <ele>765.35</ele>
        <time>2021-09-19T14:00:10Z</time>
      </trkpt>
      <trkpt lat="45.45835" lon="4.07473">
        <ele>757.18</ele>
        <time>2021-09-19T14:00:32Z</time>
      </trkpt>
      <trkpt lat="45.45827" lon="4.07479">
        <ele>755.25</ele>
        <time>2021-09-19T14:00:40Z</time>
      </trkpt>
      <trkpt lat="45.45792" lon="4.07495">
        <ele>748.52</ele>
        <time>2021-09-19T14:01:05Z</time>
      </trkpt>
      <trkpt lat="45.45758" lon="4.07531">
        <ele>744.68</ele>
        <time>2021-09-19T14:01:33Z</time>
      </trkpt>
      <trkpt lat="45.45728" lon="4.07542">
        <ele>736.51</ele>
        <time>2021-09-19T14:01:58Z</time>
      </trkpt>
      <trkpt lat="45.45722" lon="4.07544">
        <ele>734.58</ele>
        <time>2021-09-19T14:02:03Z</time>
      </trkpt>
      <trkpt lat="45.45688" lon="4.07551">
        <ele>725.93</ele>
        <time>2021-09-19T14:02:25Z</time>
      </trkpt>
      <trkpt lat="45.45662" lon="4.07566">
        <ele>721.13</ele>
        <time>2021-09-19T14:02:46Z</time>
      </trkpt>
      <trkpt lat="45.45636" lon="4.07571">
        <ele>716.8</ele>
        <time>2021-09-19T14:03:06Z</time>
      </trkpt>
      <trkpt lat="45.45599" lon="4.07575">
        <ele>712.95</ele>
        <time>2021-09-19T14:03:27Z</time>
      </trkpt>
      <trkpt lat="45.45586" lon="4.0758">
        <ele>711.51</ele>
        <time>2021-09-19T14:03:37Z</time>
      </trkpt>
      <trkpt lat="45.45553" lon="4.07578">
        <ele>707.19</ele>
        <time>2021-09-19T14:03:58Z</time>
      </trkpt>
      <trkpt lat="45.45524" lon="4.07583">
        <ele>702.38</ele>
        <time>2021-09-19T14:04:21Z</time>
      </trkpt>
      <trkpt lat="45.45484" lon="4.07587">
        <ele>699.5</ele>
        <time>2021-09-19T14:04:46Z</time>
      </trkpt>
      <trkpt lat="45.45465" lon="4.07625">
        <ele>702.86</ele>
        <time>2021-09-19T14:05:05Z</time>
      </trkpt>
      <trkpt lat="45.45446" lon="4.07669">
        <ele>707.67</ele>
        <time>2021-09-19T14:05:28Z</time>
      </trkpt>
      <trkpt lat="45.45417" lon="4.07714">
        <ele>715.36</ele>
        <time>2021-09-19T14:05:55Z</time>
      </trkpt>
      <trkpt lat="45.45383" lon="4.07748">
        <ele>719.2</ele>
        <time>2021-09-19T14:06:20Z</time>
      </trkpt>
      <trkpt lat="45.4535" lon="4.07765">
        <ele>717.76</ele>
        <time>2021-09-19T14:06:40Z</time>
      </trkpt>
      <trkpt lat="45.45328" lon="4.0779">
        <ele>714.88</ele>
        <time>2021-09-19T14:06:57Z</time>
      </trkpt>
      <trkpt lat="45.45303" lon="4.0783">
        <ele>711.99</ele>
        <time>2021-09-19T14:07:20Z</time>
      </trkpt>
      <trkpt lat="45.45274" lon="4.07857">
        <ele>709.59</ele>
        <time>2021-09-19T14:07:41Z</time>
      </trkpt>
      <trkpt lat="45.45244" lon="4.07882">
        <ele>710.55</ele>
        <time>2021-09-19T14:08:03Z</time>
      </trkpt>
      <trkpt lat="45.45226" lon="4.07915">
        <ele>711.03</ele>
        <time>2021-09-19T14:08:27Z</time>
      </trkpt>
      <trkpt lat="45.45227" lon="4.07924">
        <ele>711.51</ele>
        <time>2021-09-19T14:08:31Z</time>
      </trkpt>
      <trkpt lat="45.45256" lon="4.0797">
        <ele>707.19</ele>
        <time>2021-09-19T14:08:58Z</time>
      </trkpt>
      <trkpt lat="45.45286" lon="4.07963">
        <ele>706.23</ele>
        <time>2021-09-19T14:09:17Z</time>
      </trkpt>
      <trkpt lat="45.4531" lon="4.07952">
        <ele>707.19</ele>
        <time>2021-09-19T14:09:35Z</time>
      </trkpt>
      <trkpt lat="45.45314" lon="4.07948">
        <ele>703.34</ele>
        <time>2021-09-19T14:09:57Z</time>
      </trkpt>
      <trkpt lat="45.45317" lon="4.07952">
        <ele>705.75</ele>
        <time>2021-09-19T14:10:14Z</time>
      </trkpt>
      <trkpt lat="45.45316" lon="4.07957">
        <ele>710.55</ele>
        <time>2021-09-19T14:10:34Z</time>
      </trkpt>
      <trkpt lat="45.45318" lon="4.07958">
        <ele>711.03</ele>
        <time>2021-09-19T14:10:52Z</time>
      </trkpt>
      <trkpt lat="45.45319" lon="4.07956">
        <ele>714.88</ele>
        <time>2021-09-19T14:11:14Z</time>
      </trkpt>
      <trkpt lat="45.45315" lon="4.07952">
        <ele>715.36</ele>
        <time>2021-09-19T14:11:35Z</time>
      </trkpt>
      <trkpt lat="45.45315" lon="4.07951">
        <ele>713.44</ele>
        <time>2021-09-19T14:12:05Z</time>
      </trkpt>
      <trkpt lat="45.45314" lon="4.07951">
        <ele>711.99</ele>
        <time>2021-09-19T14:12:22Z</time>
      </trkpt>
      <trkpt lat="45.45317" lon="4.07956">
        <ele>711.99</ele>
        <time>2021-09-19T14:12:47Z</time>
      </trkpt>
      <trkpt lat="45.45317" lon="4.07957">
        <ele>710.55</ele>
        <time>2021-09-19T14:13:11Z</time>
      </trkpt>
      <trkpt lat="45.45315" lon="4.07955">
        <ele>711.51</ele>
        <time>2021-09-19T14:13:35Z</time>
      </trkpt>
      <trkpt lat="45.4532" lon="4.07955">
        <ele>713.44</ele>
        <time>2021-09-19T14:13:52Z</time>
      </trkpt>
      <trkpt lat="45.45315" lon="4.0795">
        <ele>713.92</ele>
        <time>2021-09-19T14:14:12Z</time>
      </trkpt>
      <trkpt lat="45.45316" lon="4.07955">
        <ele>711.99</ele>
        <time>2021-09-19T14:14:35Z</time>
      </trkpt>
      <trkpt lat="45.45316" lon="4.07956">
        <ele>711.99</ele>
        <time>2021-09-19T14:14:55Z</time>
      </trkpt>
      <trkpt lat="45.45317" lon="4.07957">
        <ele>712.47</ele>
        <time>2021-09-19T14:15:14Z</time>
      </trkpt>
      <trkpt lat="45.45315" lon="4.07954">
        <ele>711.99</ele>
        <time>2021-09-19T14:15:34Z</time>
      </trkpt>
      <trkpt lat="45.45315" lon="4.07955">
        <ele>711.51</ele>
        <time>2021-09-19T14:15:55Z</time>
      </trkpt>
      <trkpt lat="45.45314" lon="4.07959">
        <ele>710.07</ele>
        <time>2021-09-19T14:16:20Z</time>
      </trkpt>
      <trkpt lat="45.45316" lon="4.07957">
        <ele>710.55</ele>
        <time>2021-09-19T14:16:43Z</time>
      </trkpt>
      <trkpt lat="45.45317" lon="4.07956">
        <ele>710.07</ele>
        <time>2021-09-19T14:17:00Z</time>
      </trkpt>
      <trkpt lat="45.45318" lon="4.07957">
        <ele>710.55</ele>
        <time>2021-09-19T14:17:25Z</time>
      </trkpt>
      <trkpt lat="45.45312" lon="4.07959">
        <ele>711.51</ele>
        <time>2021-09-19T14:17:49Z</time>
      </trkpt>
      <trkpt lat="45.45314" lon="4.07955">
        <ele>710.07</ele>
        <time>2021-09-19T14:18:19Z</time>
      </trkpt>
      <trkpt lat="45.45315" lon="4.07955">
        <ele>710.55</ele>
        <time>2021-09-19T14:18:55Z</time>
      </trkpt>
      <trkpt lat="45.45316" lon="4.07955">
        <ele>711.99</ele>
        <time>2021-09-19T14:19:28Z</time>
      </trkpt>
      <trkpt lat="45.45315" lon="4.07953">
        <ele>711.03</ele>
        <time>2021-09-19T14:20:02Z</time>
      </trkpt>
      <trkpt lat="45.45315" lon="4.07956">
        <ele>712.47</ele>
        <time>2021-09-19T14:20:31Z</time>
      </trkpt>
      <trkpt lat="45.45317" lon="4.07954">
        <ele>715.84</ele>
        <time>2021-09-19T14:20:51Z</time>
      </trkpt>
      <trkpt lat="45.45317" lon="4.07955">
        <ele>717.28</ele>
        <time>2021-09-19T14:21:11Z</time>
      </trkpt>
      <trkpt lat="45.45316" lon="4.07956">
        <ele>717.28</ele>
        <time>2021-09-19T14:21:31Z</time>
      </trkpt>
      <trkpt lat="45.45316" lon="4.07955">
        <ele>716.8</ele>
        <time>2021-09-19T14:21:48Z</time>
      </trkpt>
      <trkpt lat="45.45315" lon="4.07956">
        <ele>719.68</ele>
        <time>2021-09-19T14:22:03Z</time>
      </trkpt>
    </trkseg>
  </trk>
</gpx>